Time,TemperatureF,DewpointF,PressureIn,WindDirection,WindDirectionDegrees,WindSpeedMPH,WindSpeedGustMPH,Humidity,HourlyPrecipIn,Conditions,Clouds,dailyrainin,SoftwareType,DateUTC
2013-05-17 00:00:00,68.5,46.9,29.03,SSE,158,1.1,1.1,46,0.00,CLR,,0.00,WeatherDisplay:10.37,2013-05-17 05:00:00,
2013-05-17 00:02:00,68.5,47.5,29.03,SSE,158,2.3,2.3,47,0.00,CLR,,0.00,WeatherDisplay:10.37,2013-05-17 05:02:00,
2013-05-17 00:04:00,68.5,47.5,29.03,SSE,158,1.4,1.4,47,0.00,CLR,,0.00,WeatherDisplay:10.37,2013-05-17 05:04:00,
2013-05-17 00:06:00,68.4,47.3,29.03,SE,135,2.4,2.4,47,0.00,CLR,,0.00,WeatherDisplay:10.37,2013-05-17 05:06:00,
2013-05-17 00:07:00,68.4,47.3,29.03,SSE,158,2.3,2.3,47,0.00,CLR,,0.00,WeatherDisplay:10.37,2013-05-17 05:07:00,
2013-05-17 00:08:00,68.4,47.3,29.03,SSE,158,2.3,2.3,47,0.00,CLR,,0.00,WeatherDisplay:10.37,2013-05-17 05:08:00,
2013-05-17 00:09:00,68.4,47.3,29.03,SSE,158,3.6,3.6,47,0.00,CLR,,0.00,WeatherDisplay:10.37,2013-05-17 05:09:00,
2013-05-17 00:10:00,68.4,47.3,29.03,SSE,158,1.6,1.6,47,0.00,CLR,,0.00,WeatherDisplay:10.37,2013-05-17 05:10:00,
2013-05-17 00:11:00,68.4,47.9,29.03,SSE,158,2.3,2.3,48,0.00,CLR,,0.00,WeatherDisplay:10.37,2013-05-17 05:11:00,
2013-05-17 00:13:00,68.2,47.7,29.03,SE,135,2.3,2.3,48,0.00,CLR,,0.00,WeatherDisplay:10.37,2013-05-17 05:13:00,
2013-05-17 00:15:00,68.2,47.7,29.03,SSE,158,1.6,2.0,48,0.00,CLR,,0.00,WeatherDisplay:10.37,2013-05-17 05:15:00,
2013-05-17 00:19:00,68.0,47.6,29.03,South,180,4.6,4.6,48,0.00,CLR,,0.00,WeatherDisplay:10.37,2013-05-17 05:19:00,
2013-05-17 00:20:00,68.0,47.6,29.03,SSE,158,4.6,4.6,48,0.00,CLR,,0.00,WeatherDisplay:10.37,2013-05-17 05:20:00,
2013-05-17 00:21:00,68.0,47.6,29.03,SE,135,4.6,4.6,48,0.00,CLR,,0.00,WeatherDisplay:10.37,2013-05-17 05:21:00,
2013-05-17 00:23:00,68.0,47.6,29.03,SSE,158,4.6,4.6,48,0.00,CLR,,0.00,WeatherDisplay:10.37,2013-05-17 05:23:00,
2013-05-17 00:25:00,67.8,47.4,29.03,SSE,161,3.0,0.0,48,0.00,CLR,,0.00,WeatherDisplay:10.37,2013-05-17 05:25:00,
2013-05-17 00:26:00,67.8,48.0,29.03,SSE,158,8.1,8.1,49,0.00,CLR,,0.00,WeatherDisplay:10.37,2013-05-17 05:26:00,
2013-05-17 00:27:00,68.0,48.1,29.03,SSE,158,5.8,5.8,49,0.00,CLR,,0.00,WeatherDisplay:10.37,2013-05-17 05:27:00,
2013-05-17 00:30:00,67.8,48.0,29.03,SSE,158,4.6,4.6,49,0.00,CLR,,0.00,WeatherDisplay:10.37,2013-05-17 05:30:00,
2013-05-17 00:31:00,67.8,48.0,29.03,South,180,9.2,9.2,49,0.00,CLR,,0.00,WeatherDisplay:10.37,2013-05-17 05:31:00,
2013-05-17 00:32:00,67.8,48.0,29.03,SSE,158,9.2,9.2,49,0.00,CLR,,0.00,WeatherDisplay:10.37,2013-05-17 05:32:00,
2013-05-17 00:36:00,67.8,48.5,29.03,South,180,3.5,3.5,50,0.00,CLR,,0.00,WeatherDisplay:10.37,2013-05-17 05:36:00,
2013-05-17 00:37:00,67.8,48.5,29.03,SSW,202,4.0,4.0,50,0.00,CLR,,0.00,WeatherDisplay:10.37,2013-05-17 05:37:00,
2013-05-17 00:38:00,67.8,48.5,29.03,SSE,158,4.6,4.6,50,0.00,CLR,,0.00,WeatherDisplay:10.37,2013-05-17 05:38:00,
2013-05-17 00:39:00,67.8,48.5,29.03,South,180,4.6,4.6,50,0.00,CLR,,0.00,WeatherDisplay:10.37,2013-05-17 05:39:00,
2013-05-17 00:40:00,67.8,48.5,29.03,SSE,156,2.0,0.0,50,0.00,CLR,,0.00,WeatherDisplay:10.37,2013-05-17 05:40:00,
2013-05-17 00:41:00,67.8,48.5,29.03,SE,135,3.5,3.5,50,0.00,CLR,,0.00,WeatherDisplay:10.37,2013-05-17 05:41:00,
2013-05-17 00:42:00,67.8,48.5,29.03,SSE,158,5.8,5.8,50,0.00,CLR,,0.00,WeatherDisplay:10.37,2013-05-17 05:42:00,
2013-05-17 00:43:00,67.8,48.5,29.03,SE,135,5.8,5.8,50,0.00,CLR,,0.00,WeatherDisplay:10.37,2013-05-17 05:43:00,
2013-05-17 00:46:00,67.8,48.5,29.03,SSW,202,4.6,4.6,50,0.00,CLR,,0.00,WeatherDisplay:10.37,2013-05-17 05:46:00,
2013-05-17 00:48:00,67.6,48.3,29.03,South,180,6.2,6.2,50,0.00,CLR,,0.00,WeatherDisplay:10.37,2013-05-17 05:48:00,
2013-05-17 00:50:00,67.6,48.3,29.03,SE,135,5.8,5.8,50,0.00,CLR,,0.00,WeatherDisplay:10.37,2013-05-17 05:50:00,
2013-05-17 00:51:00,67.6,48.3,29.03,South,180,5.8,5.8,50,0.00,CLR,,0.00,WeatherDisplay:10.37,2013-05-17 05:51:00,
2013-05-17 00:54:00,67.6,48.3,29.03,ESE,112,5.8,5.8,50,0.00,CLR,,0.00,WeatherDisplay:10.37,2013-05-17 05:54:00,
2013-05-17 00:55:00,67.5,48.7,29.03,SSE,158,3.5,3.5,51,0.00,CLR,,0.00,WeatherDisplay:10.37,2013-05-17 05:55:00,
2013-05-17 00:56:00,67.5,48.7,29.03,SSE,158,3.5,3.5,51,0.00,CLR,,0.00,WeatherDisplay:10.37,2013-05-17 05:56:00,
2013-05-17 00:57:00,67.5,48.7,29.03,SSE,158,3.5,3.5,51,0.00,CLR,,0.00,WeatherDisplay:10.37,2013-05-17 05:57:00,
2013-05-17 00:58:00,67.5,48.7,29.03,South,180,5.8,5.8,51,0.00,CLR,,0.00,WeatherDisplay:10.37,2013-05-17 05:58:00,
2013-05-17 00:59:00,67.5,48.7,29.03,SSE,158,4.6,4.6,51,0.00,CLR,,0.00,WeatherDisplay:10.37,2013-05-17 05:59:00,
2013-05-17 01:01:00,67.5,48.7,29.03,SSE,158,6.4,6.4,51,0.00,CLR,,0.00,WeatherDisplay:10.37,2013-05-17 06:01:00,
2013-05-17 01:04:00,67.3,48.5,29.03,SSE,158,4.6,4.6,51,0.00,CLR,,0.00,WeatherDisplay:10.37,2013-05-17 06:04:00,
2013-05-17 01:05:00,67.3,49.0,29.03,SSE,158,4.6,4.6,52,0.00,CLR,,0.00,WeatherDisplay:10.37,2013-05-17 06:05:00,
2013-05-17 01:06:00,67.3,48.5,29.03,South,180,7.4,7.4,51,0.00,CLR,,0.00,WeatherDisplay:10.37,2013-05-17 06:06:00,
2013-05-17 01:07:00,67.3,48.5,29.03,South,180,5.8,5.8,51,0.00,CLR,,0.00,WeatherDisplay:10.37,2013-05-17 06:07:00,
2013-05-17 01:09:00,67.3,49.0,29.03,SSE,158,8.1,8.1,52,0.00,CLR,,0.00,WeatherDisplay:10.37,2013-05-17 06:09:00,
2013-05-17 01:11:00,67.1,48.9,29.03,South,180,5.8,5.8,52,0.00,CLR,,0.00,WeatherDisplay:10.37,2013-05-17 06:11:00,
2013-05-17 01:12:00,67.1,48.9,29.03,SSE,158,3.5,3.5,52,0.00,CLR,,0.00,WeatherDisplay:10.37,2013-05-17 06:12:00,
2013-05-17 01:13:00,67.1,48.9,29.03,South,180,3.5,3.5,52,0.00,CLR,,0.00,WeatherDisplay:10.37,2013-05-17 06:13:00,
2013-05-17 01:14:00,67.1,48.4,29.03,South,180,5.8,5.8,51,0.00,CLR,,0.00,WeatherDisplay:10.37,2013-05-17 06:14:00,
2013-05-17 01:17:00,67.1,48.4,29.03,SSE,158,5.8,5.8,51,0.00,CLR,,0.00,WeatherDisplay:10.37,2013-05-17 06:17:00,
2013-05-17 01:18:00,66.9,48.7,29.03,SSE,158,5.8,5.8,52,0.00,CLR,,0.00,WeatherDisplay:10.37,2013-05-17 06:18:00,
2013-05-17 01:19:00,66.9,48.7,29.03,SSE,158,5.8,5.8,52,0.00,CLR,,0.00,WeatherDisplay:10.37,2013-05-17 06:19:00,
2013-05-17 01:20:00,66.9,48.7,29.03,SE,135,5.8,5.8,52,0.00,CLR,,0.00,WeatherDisplay:10.37,2013-05-17 06:20:00,
2013-05-17 01:22:00,66.9,48.7,29.03,South,180,3.5,3.5,52,0.00,CLR,,0.00,WeatherDisplay:10.37,2013-05-17 06:22:00,
2013-05-17 01:23:00,66.7,48.5,29.03,South,180,4.6,4.6,52,0.00,CLR,,0.00,WeatherDisplay:10.37,2013-05-17 06:23:00,
2013-05-17 01:25:00,66.7,49.6,29.03,South,180,4.6,4.6,54,0.00,CLR,,0.00,WeatherDisplay:10.37,2013-05-17 06:25:00,
2013-05-17 01:26:00,66.7,49.1,29.03,SSE,158,4.6,4.6,53,0.00,CLR,,0.00,WeatherDisplay:10.37,2013-05-17 06:26:00,
2013-05-17 01:27:00,66.7,49.1,29.03,SSE,158,7.4,7.4,53,0.00,CLR,,0.00,WeatherDisplay:10.37,2013-05-17 06:27:00,
2013-05-17 01:30:00,66.6,48.9,29.03,South,180,5.8,5.8,53,0.00,CLR,,0.00,WeatherDisplay:10.37,2013-05-17 06:30:00,
2013-05-17 01:32:00,66.6,49.4,29.03,SE,135,3.5,3.5,54,0.00,CLR,,0.00,WeatherDisplay:10.37,2013-05-17 06:32:00,
2013-05-17 01:33:00,66.6,48.9,29.03,South,180,3.5,3.5,53,0.00,CLR,,0.00,WeatherDisplay:10.37,2013-05-17 06:33:00,
2013-05-17 01:36:00,66.4,48.7,29.03,SSE,158,3.5,3.5,53,0.00,CLR,,0.00,WeatherDisplay:10.37,2013-05-17 06:36:00,
2013-05-17 01:37:00,66.4,49.2,29.03,SSE,158,3.5,3.5,54,0.00,CLR,,0.00,WeatherDisplay:10.37,2013-05-17 06:37:00,
2013-05-17 01:38:00,66.4,49.2,29.03,SSE,158,3.5,3.5,54,0.00,CLR,,0.00,WeatherDisplay:10.37,2013-05-17 06:38:00,
2013-05-17 01:39:00,66.4,49.2,29.03,SSW,202,3.1,3.1,54,0.00,CLR,,0.00,WeatherDisplay:10.37,2013-05-17 06:39:00,
2013-05-17 01:43:00,66.4,49.2,29.03,SSW,202,2.4,2.4,54,0.00,CLR,,0.00,WeatherDisplay:10.37,2013-05-17 06:43:00,
2013-05-17 01:44:00,66.4,49.7,29.03,SSW,202,3.1,3.1,55,0.00,CLR,,0.00,WeatherDisplay:10.37,2013-05-17 06:44:00,
2013-05-17 01:45:00,66.4,49.7,29.03,SSE,158,3.5,3.5,55,0.00,CLR,,0.00,WeatherDisplay:10.37,2013-05-17 06:45:00,
2013-05-17 01:48:00,66.2,49.6,29.03,SSW,202,3.5,3.5,55,0.00,CLR,,0.00,WeatherDisplay:10.37,2013-05-17 06:48:00,
2013-05-17 01:50:00,66.2,49.6,29.03,SSW,202,2.0,0.0,55,0.00,CLR,,0.00,WeatherDisplay:10.37,2013-05-17 06:50:00,
2013-05-17 01:51:00,66.2,49.6,29.03,SSE,158,2.3,2.3,55,0.00,CLR,,0.00,WeatherDisplay:10.37,2013-05-17 06:51:00,
2013-05-17 01:55:00,66.2,49.6,29.03,South,180,2.3,2.3,55,0.00,CLR,,0.00,WeatherDisplay:10.37,2013-05-17 06:55:00,
2013-05-17 01:56:00,66.0,49.9,29.03,SSW,202,2.3,2.3,56,0.00,CLR,,0.00,WeatherDisplay:10.37,2013-05-17 06:56:00,
2013-05-17 01:57:00,66.0,49.9,29.03,SE,135,2.3,2.3,56,0.00,CLR,,0.00,WeatherDisplay:10.37,2013-05-17 06:57:00,
2013-05-17 02:00:00,66.0,49.9,29.03,South,180,4.6,4.6,56,0.00,CLR,,0.00,WeatherDisplay:10.37,2013-05-17 07:00:00,
2013-05-17 02:03:00,66.0,50.3,29.03,South,180,1.4,1.4,57,0.00,CLR,,0.00,WeatherDisplay:10.37,2013-05-17 07:03:00,
2013-05-17 02:04:00,66.0,50.3,29.03,South,180,1.1,1.6,57,0.00,CLR,,0.00,WeatherDisplay:10.37,2013-05-17 07:04:00,
2013-05-17 02:05:00,66.0,50.3,29.03,SSW,202,3.5,3.5,57,0.00,CLR,,0.00,WeatherDisplay:10.37,2013-05-17 07:05:00,
2013-05-17 02:09:00,65.8,50.2,29.03,South,180,2.3,0.0,57,0.00,CLR,,0.00,WeatherDisplay:10.37,2013-05-17 07:09:00,
2013-05-17 02:10:00,65.8,50.2,29.03,SSW,202,2.4,2.4,57,0.00,CLR,,0.00,WeatherDisplay:10.37,2013-05-17 07:10:00,
2013-05-17 02:11:00,65.8,49.7,29.03,South,180,4.6,4.6,56,0.00,CLR,,0.00,WeatherDisplay:10.37,2013-05-17 07:11:00,
2013-05-17 02:14:00,65.8,50.2,29.03,SW,225,3.5,3.5,57,0.00,CLR,,0.00,WeatherDisplay:10.37,2013-05-17 07:14:00,
2013-05-17 02:15:00,65.8,50.2,29.03,South,187,1.0,0.0,57,0.00,CLR,,0.00,WeatherDisplay:10.37,2013-05-17 07:15:00,
2013-05-17 02:16:00,65.7,49.5,29.03,SSW,202,2.3,2.3,56,0.00,CLR,,0.00,WeatherDisplay:10.37,2013-05-17 07:16:00,
2013-05-17 02:17:00,65.7,50.0,29.03,SW,225,2.3,2.3,57,0.00,CLR,,0.00,WeatherDisplay:10.37,2013-05-17 07:17:00,
2013-05-17 02:20:00,65.7,50.0,29.03,South,187,0.0,0.0,57,0.00,CLR,,0.00,WeatherDisplay:10.37,2013-05-17 07:20:00,
2013-05-17 02:21:00,65.7,49.5,29.03,South,180,2.3,2.4,56,0.00,CLR,,0.00,WeatherDisplay:10.37,2013-05-17 07:21:00,
2013-05-17 02:22:00,65.7,50.0,29.03,SSE,158,2.3,2.3,57,0.00,CLR,,0.00,WeatherDisplay:10.37,2013-05-17 07:22:00,
2013-05-17 02:24:00,65.7,50.0,29.03,South,180,2.3,2.3,57,0.00,CLR,,0.00,WeatherDisplay:10.37,2013-05-17 07:24:00,
2013-05-17 02:25:00,65.5,49.8,29.03,South,180,2.3,2.3,57,0.00,CLR,,0.00,WeatherDisplay:10.37,2013-05-17 07:25:00,
2013-05-17 02:27:00,65.5,49.8,29.03,South,180,2.3,2.3,57,0.00,CLR,,0.00,WeatherDisplay:10.37,2013-05-17 07:27:00,
2013-05-17 02:28:00,65.5,49.8,29.03,South,180,1.1,1.1,57,0.00,CLR,,0.00,WeatherDisplay:10.37,2013-05-17 07:28:00,
2013-05-17 02:29:00,65.5,49.8,29.03,SSW,202,1.1,1.1,57,0.00,CLR,,0.00,WeatherDisplay:10.37,2013-05-17 07:29:00,
2013-05-17 02:31:00,65.5,49.8,29.03,South,180,2.3,2.3,57,0.00,CLR,,0.00,WeatherDisplay:10.37,2013-05-17 07:31:00,
2013-05-17 02:33:00,65.5,50.3,29.03,South,180,2.3,0.0,58,0.00,CLR,,0.00,WeatherDisplay:10.37,2013-05-17 07:33:00,
2013-05-17 02:34:00,65.3,50.1,29.03,South,180,1.1,0.0,58,0.00,CLR,,0.00,WeatherDisplay:10.37,2013-05-17 07:34:00,
2013-05-17 02:35:00,65.3,50.1,29.03,South,183,0.0,0.0,58,0.00,CLR,,0.00,WeatherDisplay:10.37,2013-05-17 07:35:00,
2013-05-17 02:37:00,65.3,50.1,29.03,South,180,2.2,0.0,58,0.00,CLR,,0.00,WeatherDisplay:10.37,2013-05-17 07:37:00,
2013-05-17 02:38:00,65.3,50.1,29.03,SSW,202,2.3,0.0,58,0.00,CLR,,0.00,WeatherDisplay:10.37,2013-05-17 07:38:00,
2013-05-17 02:39:00,65.3,50.1,29.03,SSE,158,1.1,0.0,58,0.00,CLR,,0.00,WeatherDisplay:10.37,2013-05-17 07:39:00,
2013-05-17 02:40:00,65.3,50.1,29.03,South,189,1.0,0.0,58,0.00,CLR,,0.00,WeatherDisplay:10.37,2013-05-17 07:40:00,
2013-05-17 02:43:00,65.3,50.6,29.03,SSE,158,1.1,0.0,59,0.00,CLR,,0.00,WeatherDisplay:10.37,2013-05-17 07:43:00,
2013-05-17 02:44:00,65.1,50.4,29.03,South,180,1.1,0.0,59,0.00,CLR,,0.00,WeatherDisplay:10.37,2013-05-17 07:44:00,
2013-05-17 02:45:00,65.1,50.4,29.03,SSE,158,1.1,0.0,59,0.00,CLR,,0.00,WeatherDisplay:10.37,2013-05-17 07:45:00,
2013-05-17 02:46:00,65.1,50.4,29.03,South,180,2.2,0.0,59,0.00,CLR,,0.00,WeatherDisplay:10.37,2013-05-17 07:46:00,
2013-05-17 02:51:00,65.1,50.9,29.03,SW,225,2.3,2.3,60,0.00,CLR,,0.00,WeatherDisplay:10.37,2013-05-17 07:51:00,
2013-05-17 02:53:00,65.1,50.4,29.03,South,180,3.3,3.3,59,0.00,CLR,,0.00,WeatherDisplay:10.37,2013-05-17 07:53:00,
2013-05-17 02:56:00,64.9,50.7,29.03,South,180,1.1,1.6,60,0.00,CLR,,0.00,WeatherDisplay:10.37,2013-05-17 07:56:00,
2013-05-17 02:57:00,65.1,50.9,29.03,SSW,202,2.3,0.0,60,0.00,CLR,,0.00,WeatherDisplay:10.37,2013-05-17 07:57:00,
2013-05-17 02:58:00,65.1,50.9,29.03,SSW,202,2.3,0.0,60,0.00,CLR,,0.00,WeatherDisplay:10.37,2013-05-17 07:58:00,
2013-05-17 02:59:00,65.1,51.3,29.03,SSE,158,1.6,1.6,61,0.00,CLR,,0.00,WeatherDisplay:10.37,2013-05-17 07:59:00,
2013-05-17 03:00:00,65.1,51.3,29.03,SSW,193,1.0,0.0,61,0.00,CLR,,0.00,WeatherDisplay:10.37,2013-05-17 08:00:00,
2013-05-17 03:02:00,65.1,51.3,29.03,SW,225,2.3,2.3,61,0.00,CLR,,0.00,WeatherDisplay:10.37,2013-05-17 08:02:00,
2013-05-17 03:03:00,65.1,51.3,29.03,SW,225,1.1,1.1,61,0.00,CLR,,0.00,WeatherDisplay:10.37,2013-05-17 08:03:00,
2013-05-17 03:05:00,65.1,51.3,29.03,SSW,202,1.0,0.0,61,0.00,CLR,,0.00,WeatherDisplay:10.37,2013-05-17 08:05:00,
2013-05-17 03:08:00,65.3,51.5,29.06,SW,225,2.6,2.6,61,0.00,CLR,,0.00,WeatherDisplay:10.37,2013-05-17 08:08:00,
2013-05-17 03:10:00,65.3,51.1,29.06,SSW,207,1.0,0.0,60,0.00,CLR,,0.00,WeatherDisplay:10.37,2013-05-17 08:10:00,
2013-05-17 03:11:00,65.3,51.1,29.06,SW,225,2.3,2.3,60,0.00,CLR,,0.00,WeatherDisplay:10.37,2013-05-17 08:11:00,
2013-05-17 03:15:00,65.1,50.9,29.06,SSW,213,2.0,0.0,60,0.00,CLR,,0.00,WeatherDisplay:10.37,2013-05-17 08:15:00,
2013-05-17 03:16:00,65.1,50.9,29.06,SSW,202,3.5,3.5,60,0.00,CLR,,0.00,WeatherDisplay:10.37,2013-05-17 08:16:00,
2013-05-17 03:19:00,65.1,51.3,29.06,SSW,202,1.1,1.1,61,0.00,CLR,,0.00,WeatherDisplay:10.37,2013-05-17 08:19:00,
2013-05-17 03:21:00,65.1,51.3,29.06,SW,225,2.3,2.3,61,0.00,CLR,,0.00,WeatherDisplay:10.37,2013-05-17 08:21:00,
2013-05-17 03:22:00,65.1,51.3,29.03,SSW,202,2.4,2.4,61,0.00,CLR,,0.00,WeatherDisplay:10.37,2013-05-17 08:22:00,
2013-05-17 03:23:00,65.1,51.3,29.03,SSW,202,2.3,0.0,61,0.00,CLR,,0.00,WeatherDisplay:10.37,2013-05-17 08:23:00,
2013-05-17 03:25:00,64.9,51.2,29.03,SW,225,2.0,2.0,61,0.00,CLR,,0.00,WeatherDisplay:10.37,2013-05-17 08:25:00,
2013-05-17 03:26:00,64.9,51.2,29.03,SSW,202,1.1,1.1,61,0.00,CLR,,0.00,WeatherDisplay:10.37,2013-05-17 08:26:00,
2013-05-17 03:27:00,64.9,51.2,29.03,SSW,202,2.4,2.4,61,0.00,CLR,,0.00,WeatherDisplay:10.37,2013-05-17 08:27:00,
2013-05-17 03:28:00,64.9,50.7,29.03,SSW,202,2.3,2.3,60,0.00,CLR,,0.00,WeatherDisplay:10.37,2013-05-17 08:28:00,
2013-05-17 03:30:00,64.9,50.7,29.03,South,180,3.5,3.5,60,0.00,CLR,,0.00,WeatherDisplay:10.37,2013-05-17 08:30:00,
2013-05-17 03:31:00,64.8,50.5,29.03,SSE,158,1.1,1.6,60,0.00,CLR,,0.00,WeatherDisplay:10.37,2013-05-17 08:31:00,
2013-05-17 03:32:00,64.8,50.5,29.03,South,180,2.4,2.4,60,0.00,CLR,,0.00,WeatherDisplay:10.37,2013-05-17 08:32:00,
2013-05-17 03:34:00,64.8,51.0,29.03,South,180,3.5,0.0,61,0.00,CLR,,0.00,WeatherDisplay:10.37,2013-05-17 08:34:00,
2013-05-17 03:35:00,64.8,51.0,29.03,South,181,1.0,0.0,61,0.00,CLR,,0.00,WeatherDisplay:10.37,2013-05-17 08:35:00,
2013-05-17 03:36:00,64.8,50.5,29.03,South,180,3.5,3.5,60,0.00,CLR,,0.00,WeatherDisplay:10.37,2013-05-17 08:36:00,
2013-05-17 03:37:00,64.8,50.5,29.03,SSW,202,3.5,3.5,60,0.00,CLR,,0.00,WeatherDisplay:10.37,2013-05-17 08:37:00,
2013-05-17 03:39:00,64.6,50.4,29.03,SW,225,4.6,4.6,60,0.00,CLR,,0.00,WeatherDisplay:10.37,2013-05-17 08:39:00,
2013-05-17 03:40:00,64.6,50.4,29.03,SSW,194,1.0,0.0,60,0.00,CLR,,0.00,WeatherDisplay:10.37,2013-05-17 08:40:00,
2013-05-17 03:41:00,64.6,50.4,29.03,South,180,2.3,2.3,60,0.00,CLR,,0.00,WeatherDisplay:10.37,2013-05-17 08:41:00,
2013-05-17 03:43:00,64.6,50.4,29.03,South,180,2.3,2.3,60,0.00,CLR,,0.00,WeatherDisplay:10.37,2013-05-17 08:43:00,
2013-05-17 03:44:00,64.4,50.2,29.03,SSW,202,3.5,3.5,60,0.00,CLR,,0.00,WeatherDisplay:10.37,2013-05-17 08:44:00,
2013-05-17 03:47:00,64.4,50.2,29.03,South,180,1.1,1.4,60,0.00,CLR,,0.00,WeatherDisplay:10.37,2013-05-17 08:47:00,
2013-05-17 03:49:00,64.4,50.2,29.03,SSW,202,1.4,1.4,60,0.00,CLR,,0.00,WeatherDisplay:10.37,2013-05-17 08:49:00,
2013-05-17 03:50:00,64.4,50.2,29.03,South,180,1.1,1.4,60,0.00,CLR,,0.00,WeatherDisplay:10.37,2013-05-17 08:50:00,
2013-05-17 03:52:00,64.4,50.2,29.03,SSW,202,1.1,2.4,60,0.00,CLR,,0.00,WeatherDisplay:10.37,2013-05-17 08:52:00,
2013-05-17 03:53:00,64.2,50.0,29.03,SSE,158,1.4,2.4,60,0.00,CLR,,0.00,WeatherDisplay:10.37,2013-05-17 08:53:00,
2013-05-17 03:55:00,64.2,50.0,29.03,SSW,202,1.6,1.6,60,0.00,CLR,,0.00,WeatherDisplay:10.37,2013-05-17 08:55:00,
2013-05-17 03:56:00,64.2,50.0,29.03,South,180,3.3,3.3,60,0.00,CLR,,0.00,WeatherDisplay:10.37,2013-05-17 08:56:00,
2013-05-17 03:57:00,64.2,50.0,29.03,SSE,158,2.3,2.3,60,0.00,CLR,,0.00,WeatherDisplay:10.37,2013-05-17 08:57:00,
2013-05-17 03:59:00,64.2,50.5,29.03,South,180,2.4,2.4,61,0.00,CLR,,0.00,WeatherDisplay:10.37,2013-05-17 08:59:00,
2013-05-17 04:01:00,64.0,49.9,29.03,SSW,202,5.8,5.8,60,0.00,CLR,,0.00,WeatherDisplay:10.37,2013-05-17 09:01:00,
2013-05-17 04:02:00,64.0,49.9,29.03,WSW,248,4.7,4.7,60,0.00,CLR,,0.00,WeatherDisplay:10.37,2013-05-17 09:02:00,
2013-05-17 04:04:00,64.0,49.9,29.03,South,180,4.6,4.6,60,0.00,CLR,,0.00,WeatherDisplay:10.37,2013-05-17 09:04:00,
2013-05-17 04:06:00,64.0,49.9,29.03,WSW,248,1.6,1.6,60,0.00,CLR,,0.00,WeatherDisplay:10.37,2013-05-17 09:06:00,
2013-05-17 04:07:00,64.0,50.3,29.03,SSE,158,3.8,3.8,61,0.00,CLR,,0.00,WeatherDisplay:10.37,2013-05-17 09:07:00,
2013-05-17 04:10:00,63.9,50.1,29.03,SSW,197,1.0,0.0,61,0.00,CLR,,0.00,WeatherDisplay:10.37,2013-05-17 09:10:00,
2013-05-17 04:11:00,63.9,50.1,29.03,South,180,1.1,1.4,61,0.00,CLR,,0.00,WeatherDisplay:10.37,2013-05-17 09:11:00,
2013-05-17 04:13:00,63.9,50.1,29.03,SSW,202,2.3,2.3,61,0.00,CLR,,0.00,WeatherDisplay:10.37,2013-05-17 09:13:00,
2013-05-17 04:14:00,63.9,50.1,29.03,SSW,202,3.5,3.5,61,0.00,CLR,,0.00,WeatherDisplay:10.37,2013-05-17 09:14:00,
2013-05-17 04:15:00,63.9,49.7,29.03,South,180,3.5,3.5,60,0.00,CLR,,0.00,WeatherDisplay:10.37,2013-05-17 09:15:00,
2013-05-17 04:16:00,63.9,49.7,29.03,South,180,3.5,3.5,60,0.00,CLR,,0.00,WeatherDisplay:10.37,2013-05-17 09:16:00,
2013-05-17 04:18:00,63.7,49.5,29.03,South,180,2.3,2.3,60,0.00,CLR,,0.00,WeatherDisplay:10.37,2013-05-17 09:18:00,
2013-05-17 04:19:00,63.7,49.5,29.03,South,180,2.3,2.3,60,0.00,CLR,,0.00,WeatherDisplay:10.37,2013-05-17 09:19:00,
2013-05-17 04:22:00,63.7,49.5,29.03,South,180,1.6,1.6,60,0.00,CLR,,0.00,WeatherDisplay:10.37,2013-05-17 09:22:00,
2013-05-17 04:23:00,63.7,49.5,29.03,SSW,202,0.0,0.0,60,0.00,CLR,,0.00,WeatherDisplay:10.37,2013-05-17 09:23:00,
2013-05-17 04:24:00,63.7,49.5,29.03,SSE,158,2.4,0.0,60,0.00,CLR,,0.00,WeatherDisplay:10.37,2013-05-17 09:24:00,
2013-05-17 04:25:00,63.7,49.5,29.03,South,191,1.0,0.0,60,0.00,CLR,,0.00,WeatherDisplay:10.37,2013-05-17 09:25:00,
2013-05-17 04:27:00,63.5,49.4,29.03,SSW,202,1.1,0.0,60,0.00,CLR,,0.00,WeatherDisplay:10.37,2013-05-17 09:27:00,
2013-05-17 04:30:00,63.5,49.4,29.03,SSE,158,1.1,1.6,60,0.00,CLR,,0.00,WeatherDisplay:10.37,2013-05-17 09:30:00,
2013-05-17 04:31:00,63.5,49.4,29.03,SSW,202,2.3,2.3,60,0.00,CLR,,0.00,WeatherDisplay:10.37,2013-05-17 09:31:00,
2013-05-17 04:33:00,63.5,49.4,29.03,SSW,202,2.3,2.3,60,0.00,CLR,,0.00,WeatherDisplay:10.37,2013-05-17 09:33:00,
2013-05-17 04:34:00,63.5,49.4,29.03,SSW,202,1.6,1.6,60,0.00,CLR,,0.00,WeatherDisplay:10.37,2013-05-17 09:34:00,
2013-05-17 04:35:00,63.5,49.4,29.03,South,180,1.1,0.0,60,0.00,CLR,,0.00,WeatherDisplay:10.37,2013-05-17 09:35:00,
2013-05-17 04:37:00,63.3,49.2,29.03,South,180,3.5,3.5,60,0.00,CLR,,0.00,WeatherDisplay:10.37,2013-05-17 09:37:00,
2013-05-17 04:39:00,63.3,49.2,29.03,South,180,2.3,0.0,60,0.00,CLR,,0.00,WeatherDisplay:10.37,2013-05-17 09:39:00,
2013-05-17 04:40:00,63.3,49.2,29.03,SSW,194,0.0,0.0,60,0.00,CLR,,0.00,WeatherDisplay:10.37,2013-05-17 09:40:00,
2013-05-17 04:43:00,63.1,49.0,29.03,SW,225,1.1,0.0,60,0.00,CLR,,0.00,WeatherDisplay:10.37,2013-05-17 09:43:00,
2013-05-17 04:44:00,63.1,49.0,29.03,SSW,202,1.4,0.0,60,0.00,CLR,,0.00,WeatherDisplay:10.37,2013-05-17 09:44:00,
2013-05-17 04:45:00,63.1,49.0,29.03,SW,225,1.1,0.0,60,0.00,CLR,,0.00,WeatherDisplay:10.37,2013-05-17 09:45:00,
2013-05-17 04:48:00,63.1,49.0,29.03,SW,225,0.0,0.0,60,0.00,CLR,,0.00,WeatherDisplay:10.37,2013-05-17 09:48:00,
2013-05-17 04:49:00,63.0,48.9,29.03,South,180,0.0,0.0,60,0.00,CLR,,0.00,WeatherDisplay:10.37,2013-05-17 09:49:00,
2013-05-17 04:50:00,63.0,48.9,29.03,SSW,206,0.0,0.0,60,0.00,CLR,,0.00,WeatherDisplay:10.37,2013-05-17 09:50:00,
2013-05-17 04:51:00,63.0,48.9,29.03,SSW,202,3.5,3.5,60,0.00,CLR,,0.00,WeatherDisplay:10.37,2013-05-17 09:51:00,
2013-05-17 04:54:00,63.0,48.9,29.06,SSE,158,1.1,1.1,60,0.00,CLR,,0.00,WeatherDisplay:10.37,2013-05-17 09:54:00,
2013-05-17 04:55:00,63.0,48.9,29.06,South,180,1.6,0.0,60,0.00,CLR,,0.00,WeatherDisplay:10.37,2013-05-17 09:55:00,
2013-05-17 04:56:00,63.0,48.9,29.06,South,180,1.1,1.1,60,0.00,CLR,,0.00,WeatherDisplay:10.37,2013-05-17 09:56:00,
2013-05-17 05:00:00,62.8,48.7,29.06,SW,225,1.4,1.4,60,0.00,CLR,,0.00,WeatherDisplay:10.37,2013-05-17 10:00:00,
2013-05-17 05:01:00,62.8,48.7,29.06,SSW,202,1.1,1.1,60,0.00,CLR,,0.00,WeatherDisplay:10.37,2013-05-17 10:01:00,
2013-05-17 05:03:00,62.6,48.5,29.06,South,180,1.1,1.1,60,0.00,CLR,,0.00,WeatherDisplay:10.37,2013-05-17 10:03:00,
2013-05-17 05:04:00,62.6,48.5,29.06,SSW,202,1.1,1.1,60,0.00,CLR,,0.00,WeatherDisplay:10.37,2013-05-17 10:04:00,
2013-05-17 05:05:00,62.6,48.5,29.06,South,180,0.0,0.0,60,0.00,CLR,,0.00,WeatherDisplay:10.37,2013-05-17 10:05:00,
2013-05-17 05:06:00,62.6,48.5,29.06,South,180,2.3,0.0,60,0.00,CLR,,0.00,WeatherDisplay:10.37,2013-05-17 10:06:00,
2013-05-17 05:09:00,62.4,48.8,29.06,South,180,0.0,0.0,61,0.00,CLR,,0.00,WeatherDisplay:10.37,2013-05-17 10:09:00,
2013-05-17 05:10:00,62.4,48.8,29.06,South,186,0.0,0.0,61,0.00,CLR,,0.00,WeatherDisplay:10.37,2013-05-17 10:10:00,
2013-05-17 05:12:00,62.2,48.2,29.06,South,180,1.1,1.1,60,0.00,CLR,,0.00,WeatherDisplay:10.37,2013-05-17 10:12:00,
2013-05-17 05:13:00,62.2,48.2,29.06,South,180,3.5,3.5,60,0.00,CLR,,0.00,WeatherDisplay:10.37,2013-05-17 10:13:00,
2013-05-17 05:14:00,62.2,48.2,29.06,SSW,202,3.5,3.5,60,0.00,CLR,,0.00,WeatherDisplay:10.37,2013-05-17 10:14:00,
2013-05-17 05:15:00,62.2,48.2,29.06,South,180,2.3,2.3,60,0.00,CLR,,0.00,WeatherDisplay:10.37,2013-05-17 10:15:00,
2013-05-17 05:17:00,62.2,48.6,29.06,South,180,2.3,0.0,61,0.00,CLR,,0.00,WeatherDisplay:10.37,2013-05-17 10:17:00,
2013-05-17 05:19:00,62.1,48.4,29.06,South,180,1.1,0.0,61,0.00,CLR,,0.00,WeatherDisplay:10.37,2013-05-17 10:19:00,
2013-05-17 05:20:00,62.1,48.4,29.06,South,180,1.1,0.0,61,0.00,CLR,,0.00,WeatherDisplay:10.37,2013-05-17 10:20:00,
2013-05-17 05:21:00,62.1,48.4,29.03,SSE,158,1.1,0.0,61,0.00,CLR,,0.00,WeatherDisplay:10.37,2013-05-17 10:21:00,
2013-05-17 05:24:00,61.9,48.3,29.03,SSW,202,1.1,0.0,61,0.00,CLR,,0.00,WeatherDisplay:10.37,2013-05-17 10:24:00,
2013-05-17 05:25:00,61.9,48.3,29.03,SSW,202,2.3,0.0,61,0.00,CLR,,0.00,WeatherDisplay:10.37,2013-05-17 10:25:00,
2013-05-17 05:26:00,61.9,48.3,29.03,South,180,0.0,0.0,61,0.00,CLR,,0.00,WeatherDisplay:10.37,2013-05-17 10:26:00,
2013-05-17 05:27:00,61.9,48.3,29.03,SSW,202,0.0,0.0,61,0.00,CLR,,0.00,WeatherDisplay:10.37,2013-05-17 10:27:00,
2013-05-17 05:28:00,61.9,48.3,29.03,South,180,1.1,0.0,61,0.00,CLR,,0.00,WeatherDisplay:10.37,2013-05-17 10:28:00,
2013-05-17 05:31:00,61.9,48.3,29.03,South,180,1.1,0.0,61,0.00,CLR,,0.00,WeatherDisplay:10.37,2013-05-17 10:31:00,
2013-05-17 05:32:00,61.9,48.3,29.03,South,180,0.0,0.0,61,0.00,CLR,,0.00,WeatherDisplay:10.37,2013-05-17 10:32:00,
2013-05-17 05:33:00,61.7,48.1,29.03,South,180,1.4,0.0,61,0.00,CLR,,0.00,WeatherDisplay:10.37,2013-05-17 10:33:00,
2013-05-17 05:35:00,61.7,48.1,29.03,South,183,1.0,0.0,61,0.00,CLR,,0.00,WeatherDisplay:10.37,2013-05-17 10:35:00,
2013-05-17 05:36:00,61.7,48.1,29.03,SE,135,1.4,1.4,61,0.00,CLR,,0.00,WeatherDisplay:10.37,2013-05-17 10:36:00,
2013-05-17 05:37:00,61.7,48.1,29.06,SE,135,1.1,1.4,61,0.00,CLR,,0.00,WeatherDisplay:10.37,2013-05-17 10:37:00,
2013-05-17 05:38:00,61.7,48.1,29.06,SE,135,1.1,1.1,61,0.00,CLR,,0.00,WeatherDisplay:10.37,2013-05-17 10:38:00,
2013-05-17 05:39:00,61.5,47.5,29.06,SE,135,1.4,1.4,60,0.00,CLR,,0.00,WeatherDisplay:10.37,2013-05-17 10:39:00,
2013-05-17 05:40:00,61.5,47.5,29.06,SSE,152,1.0,0.0,60,0.00,CLR,,0.00,WeatherDisplay:10.37,2013-05-17 10:40:00,
2013-05-17 05:41:00,61.5,47.5,29.06,SE,135,1.1,0.0,60,0.00,CLR,,0.00,WeatherDisplay:10.37,2013-05-17 10:41:00,
2013-05-17 05:43:00,61.5,47.9,29.06,SE,135,0.0,0.0,61,0.00,CLR,,0.00,WeatherDisplay:10.37,2013-05-17 10:43:00,
2013-05-17 05:45:00,61.3,47.8,29.06,SSE,158,2.3,0.0,61,0.00,CLR,,0.00,WeatherDisplay:10.37,2013-05-17 10:45:00,
2013-05-17 05:47:00,61.3,48.2,29.06,SE,135,2.3,2.3,62,0.00,CLR,,0.00,WeatherDisplay:10.37,2013-05-17 10:47:00,
2013-05-17 05:48:00,61.3,48.2,29.06,ESE,112,2.3,2.3,62,0.00,CLR,,0.00,WeatherDisplay:10.37,2013-05-17 10:48:00,
2013-05-17 05:49:00,61.3,47.8,29.06,SE,135,2.3,2.3,61,0.00,CLR,,0.00,WeatherDisplay:10.37,2013-05-17 10:49:00,
2013-05-17 05:50:00,61.3,47.8,29.06,SSE,158,2.3,2.3,61,0.00,CLR,,0.00,WeatherDisplay:10.37,2013-05-17 10:50:00,
2013-05-17 05:53:00,61.3,48.2,29.06,SE,135,1.1,1.4,62,0.00,CLR,,0.00,WeatherDisplay:10.37,2013-05-17 10:53:00,
2013-05-17 05:54:00,61.2,48.0,29.06,SSE,158,1.6,1.6,62,0.00,CLR,,0.00,WeatherDisplay:10.37,2013-05-17 10:54:00,
2013-05-17 05:56:00,61.2,48.0,29.06,SSE,158,2.3,2.3,62,0.00,CLR,,0.00,WeatherDisplay:10.37,2013-05-17 10:56:00,
2013-05-17 05:58:00,61.2,48.5,29.06,South,180,1.1,1.1,63,0.00,CLR,,0.00,WeatherDisplay:10.37,2013-05-17 10:58:00,
2013-05-17 05:59:00,61.2,48.5,29.06,South,180,2.3,2.3,63,0.00,CLR,,0.00,WeatherDisplay:10.37,2013-05-17 10:59:00,
2013-05-17 06:02:00,61.2,48.5,29.06,SSE,158,1.1,1.1,63,0.00,CLR,,0.00,WeatherDisplay:10.37,2013-05-17 11:02:00,
2013-05-17 06:04:00,61.3,48.6,29.06,SE,135,2.0,2.0,63,0.00,CLR,,0.00,WeatherDisplay:10.37,2013-05-17 11:04:00,
2013-05-17 06:05:00,61.3,48.6,29.06,SE,135,2.3,2.3,63,0.00,CLR,,0.00,WeatherDisplay:10.37,2013-05-17 11:05:00,
2013-05-17 06:06:00,61.3,48.2,29.06,SE,135,2.3,2.3,62,0.00,CLR,,0.00,WeatherDisplay:10.37,2013-05-17 11:06:00,
2013-05-17 06:07:00,61.3,48.2,29.06,ESE,112,2.3,2.3,62,0.00,CLR,,0.00,WeatherDisplay:10.37,2013-05-17 11:07:00,
2013-05-17 06:10:00,61.3,48.2,29.06,SE,135,2.3,2.3,62,0.00,CLR,,0.00,WeatherDisplay:10.37,2013-05-17 11:10:00,
2013-05-17 06:11:00,61.3,48.2,29.06,SE,135,2.3,2.3,62,0.00,CLR,,0.00,WeatherDisplay:10.37,2013-05-17 11:11:00,
2013-05-17 06:12:00,61.3,48.2,29.06,SSE,158,1.1,1.6,62,0.00,CLR,,0.00,WeatherDisplay:10.37,2013-05-17 11:12:00,
2013-05-17 06:14:00,61.5,48.8,29.06,SE,135,2.3,2.3,63,0.00,CLR,,0.00,WeatherDisplay:10.37,2013-05-17 11:14:00,
2013-05-17 06:15:00,61.5,48.8,29.06,SSE,158,1.6,1.6,63,0.00,CLR,,0.00,WeatherDisplay:10.37,2013-05-17 11:15:00,
2013-05-17 06:16:00,61.5,48.8,29.06,South,180,2.4,2.4,63,0.00,CLR,,0.00,WeatherDisplay:10.37,2013-05-17 11:16:00,
2013-05-17 06:17:00,61.5,48.8,29.06,South,180,2.3,2.3,63,0.00,CLR,,0.00,WeatherDisplay:10.37,2013-05-17 11:17:00,
2013-05-17 06:21:00,61.7,49.0,29.09,South,180,1.1,0.0,63,0.00,CLR,,0.00,WeatherDisplay:10.37,2013-05-17 11:21:00,
2013-05-17 06:22:00,61.7,49.0,29.09,SSE,158,1.6,0.0,63,0.00,CLR,,0.00,WeatherDisplay:10.37,2013-05-17 11:22:00,
2013-05-17 06:23:00,61.7,49.0,29.09,SSE,158,2.3,2.3,63,0.00,CLR,,0.00,WeatherDisplay:10.37,2013-05-17 11:23:00,
2013-05-17 06:25:00,61.9,49.1,29.09,South,175,0.0,0.0,63,0.00,CLR,,0.00,WeatherDisplay:10.37,2013-05-17 11:25:00,
2013-05-17 06:27:00,61.9,49.1,29.09,SSW,202,0.0,0.0,63,0.00,CLR,,0.00,WeatherDisplay:10.37,2013-05-17 11:27:00,
2013-05-17 06:28:00,62.1,49.3,29.09,SSW,202,0.0,0.0,63,0.00,CLR,,0.00,WeatherDisplay:10.37,2013-05-17 11:28:00,
2013-05-17 06:30:00,62.1,49.3,29.09,SSW,192,0.0,0.0,63,0.00,CLR,,0.00,WeatherDisplay:10.37,2013-05-17 11:30:00,
2013-05-17 06:33:00,62.2,49.5,29.09,SSW,202,0.0,0.0,63,0.00,CLR,,0.00,WeatherDisplay:10.37,2013-05-17 11:33:00,
2013-05-17 06:34:00,62.6,49.8,29.09,SSW,202,0.0,0.0,63,0.00,CLR,,0.00,WeatherDisplay:10.37,2013-05-17 11:34:00,
2013-05-17 06:36:00,63.0,50.2,29.09,SSW,202,0.0,0.0,63,0.00,CLR,,0.00,WeatherDisplay:10.37,2013-05-17 11:36:00,
2013-05-17 06:37:00,63.1,50.3,29.09,SSW,202,1.1,0.0,63,0.00,CLR,,0.00,WeatherDisplay:10.37,2013-05-17 11:37:00,
2013-05-17 06:39:00,64.0,51.2,29.09,South,180,1.1,0.0,63,0.00,CLR,,0.00,WeatherDisplay:10.37,2013-05-17 11:39:00,
2013-05-17 06:42:00,64.8,51.4,29.09,South,180,0.0,0.0,62,0.00,CLR,,0.00,WeatherDisplay:10.37,2013-05-17 11:42:00,
2013-05-17 06:43:00,64.8,51.4,29.09,South,180,0.0,0.0,62,0.00,CLR,,0.00,WeatherDisplay:10.37,2013-05-17 11:43:00,
2013-05-17 06:44:00,65.1,51.3,29.09,South,180,0.0,0.0,61,0.00,CLR,,0.00,WeatherDisplay:10.37,2013-05-17 11:44:00,
2013-05-17 06:47:00,65.1,50.4,29.09,SE,135,0.0,0.0,59,0.00,CLR,,0.00,WeatherDisplay:10.37,2013-05-17 11:47:00,
2013-05-17 06:49:00,65.1,50.0,29.09,SE,135,0.0,0.0,58,0.00,CLR,,0.00,WeatherDisplay:10.37,2013-05-17 11:49:00,
2013-05-17 06:50:00,65.1,50.0,29.09,SE,135,0.0,0.0,58,0.00,CLR,,0.00,WeatherDisplay:10.37,2013-05-17 11:50:00,
2013-05-17 06:52:00,65.1,50.0,29.09,SE,135,0.0,0.0,58,0.00,CLR,,0.00,WeatherDisplay:10.37,2013-05-17 11:52:00,
2013-05-17 06:53:00,65.1,50.0,29.09,SE,135,0.0,0.0,58,0.00,CLR,,0.00,WeatherDisplay:10.37,2013-05-17 11:53:00,
2013-05-17 06:56:00,66.2,51.0,29.09,SE,135,0.0,0.0,58,0.00,CLR,,0.00,WeatherDisplay:10.37,2013-05-17 11:56:00,
2013-05-17 06:57:00,66.4,50.7,29.09,SE,135,0.0,0.0,57,0.00,CLR,,0.00,WeatherDisplay:10.37,2013-05-17 11:57:00,
2013-05-17 06:59:00,66.7,50.5,29.09,SW,225,0.0,0.0,56,0.00,CLR,,0.00,WeatherDisplay:10.37,2013-05-17 11:59:00,
2013-05-17 07:00:00,66.7,50.5,29.09,SW,225,0.0,0.0,56,0.00,CLR,,0.00,WeatherDisplay:10.37,2013-05-17 12:00:00,
2013-05-17 07:02:00,66.9,49.7,29.09,SW,225,0.0,0.0,54,0.00,CLR,,0.00,WeatherDisplay:10.37,2013-05-17 12:02:00,
2013-05-17 07:04:00,67.1,49.4,29.09,SSW,202,0.0,0.0,53,0.00,CLR,,0.00,WeatherDisplay:10.37,2013-05-17 12:04:00,
2013-05-17 07:05:00,67.1,48.9,29.09,SSW,202,0.0,0.0,52,0.00,CLR,,0.00,WeatherDisplay:10.37,2013-05-17 12:05:00,
2013-05-17 07:08:00,67.1,48.4,29.09,SSE,158,1.1,0.0,51,0.00,CLR,,0.00,WeatherDisplay:10.37,2013-05-17 12:08:00,
2013-05-17 07:10:00,67.1,48.4,29.09,SSE,158,0.0,0.0,51,0.00,CLR,,0.00,WeatherDisplay:10.37,2013-05-17 12:10:00,
2013-05-17 07:11:00,67.5,48.7,29.09,SSE,158,0.0,0.0,51,0.00,CLR,,0.00,WeatherDisplay:10.37,2013-05-17 12:11:00,
2013-05-17 07:12:00,67.5,48.2,29.09,SSE,158,0.0,0.0,50,0.00,CLR,,0.00,WeatherDisplay:10.37,2013-05-17 12:12:00,
2013-05-17 07:13:00,67.6,48.9,29.09,SSE,158,0.0,0.0,51,0.00,CLR,,0.00,WeatherDisplay:10.37,2013-05-17 12:13:00,
2013-05-17 07:14:00,67.8,49.0,29.09,SSE,158,0.0,0.0,51,0.00,CLR,,0.00,WeatherDisplay:10.37,2013-05-17 12:14:00,
2013-05-17 07:15:00,68.2,49.4,29.09,SE,135,0.0,0.0,51,0.00,CLR,,0.00,WeatherDisplay:10.37,2013-05-17 12:15:00,
2013-05-17 07:16:00,68.2,48.8,29.09,SE,135,0.9,0.0,50,0.00,CLR,,0.00,WeatherDisplay:10.37,2013-05-17 12:16:00,
2013-05-17 07:17:00,68.4,49.0,29.09,SE,135,1.4,1.4,50,0.00,CLR,,0.00,WeatherDisplay:10.37,2013-05-17 12:17:00,
2013-05-17 07:18:00,68.5,49.7,29.09,ESE,112,1.1,1.1,51,0.00,CLR,,0.00,WeatherDisplay:10.37,2013-05-17 12:18:00,
2013-05-17 07:20:00,68.9,49.5,29.09,ESE,112,2.3,2.3,50,0.00,CLR,,0.00,WeatherDisplay:10.37,2013-05-17 12:20:00,
2013-05-17 07:22:00,68.9,48.4,29.09,SE,135,2.4,2.4,48,0.00,CLR,,0.00,WeatherDisplay:10.37,2013-05-17 12:22:00,
2013-05-17 07:23:00,69.4,49.4,29.09,SE,135,2.9,2.9,49,0.00,CLR,,0.00,WeatherDisplay:10.37,2013-05-17 12:23:00,
2013-05-17 07:25:00,69.6,50.2,29.09,SE,139,2.0,0.0,50,0.00,CLR,,0.00,WeatherDisplay:10.37,2013-05-17 12:25:00,
2013-05-17 07:26:00,70.2,50.1,29.09,SSE,158,3.5,3.5,49,0.00,CLR,,0.00,WeatherDisplay:10.37,2013-05-17 12:26:00,
2013-05-17 07:28:00,70.7,50.0,29.09,SSE,158,4.6,4.6,48,0.00,CLR,,0.00,WeatherDisplay:10.37,2013-05-17 12:28:00,
2013-05-17 07:29:00,70.9,49.6,29.09,SE,135,3.5,3.5,47,0.00,CLR,,0.00,WeatherDisplay:10.37,2013-05-17 12:29:00,
2013-05-17 07:31:00,71.4,49.0,29.09,SSE,158,2.3,0.0,45,0.00,CLR,,0.00,WeatherDisplay:10.37,2013-05-17 12:31:00,
2013-05-17 07:34:00,71.6,48.5,29.09,SE,135,2.9,2.9,44,0.00,CLR,,0.00,WeatherDisplay:10.37,2013-05-17 12:34:00,
2013-05-17 07:35:00,71.6,48.5,29.09,SSE,148,1.0,0.0,44,0.00,CLR,,0.00,WeatherDisplay:10.37,2013-05-17 12:35:00,
2013-05-17 07:38:00,72.0,47.6,29.12,East,90,1.1,0.0,42,0.00,CLR,,0.00,WeatherDisplay:10.37,2013-05-17 12:38:00,
2013-05-17 07:39:00,71.8,46.8,29.12,SSE,158,2.2,2.2,41,0.00,CLR,,0.00,WeatherDisplay:10.37,2013-05-17 12:39:00,
2013-05-17 07:40:00,71.8,46.8,29.12,SSE,149,1.0,0.0,41,0.00,CLR,,0.00,WeatherDisplay:10.37,2013-05-17 12:40:00,
2013-05-17 07:45:00,72.1,48.3,29.12,SSE,154,1.0,0.0,43,0.00,CLR,,0.00,WeatherDisplay:10.37,2013-05-17 12:45:00,
2013-05-17 07:46:00,72.1,47.8,29.12,SE,135,1.1,0.0,42,0.00,CLR,,0.00,WeatherDisplay:10.37,2013-05-17 12:46:00,
2013-05-17 07:47:00,72.1,47.8,29.12,SE,135,1.6,1.6,42,0.00,CLR,,0.00,WeatherDisplay:10.37,2013-05-17 12:47:00,
2013-05-17 07:48:00,71.6,46.0,29.12,SE,135,1.1,1.1,40,0.00,CLR,,0.00,WeatherDisplay:10.37,2013-05-17 12:48:00,
2013-05-17 07:50:00,71.6,47.3,29.12,SE,135,2.3,2.3,42,0.00,CLR,,0.00,WeatherDisplay:10.37,2013-05-17 12:50:00,
2013-05-17 07:51:00,71.6,47.3,29.09,SE,135,1.1,1.1,42,0.00,CLR,,0.00,WeatherDisplay:10.37,2013-05-17 12:51:00,
2013-05-17 07:53:00,71.6,46.6,29.09,SSE,158,2.3,2.3,41,0.00,CLR,,0.00,WeatherDisplay:10.37,2013-05-17 12:53:00,
2013-05-17 07:54:00,71.6,46.6,29.09,SSE,158,2.3,0.0,41,0.00,CLR,,0.00,WeatherDisplay:10.37,2013-05-17 12:54:00,
2013-05-17 07:56:00,71.6,46.6,29.09,SSE,158,2.0,2.0,41,0.00,CLR,,0.00,WeatherDisplay:10.37,2013-05-17 12:56:00,
2013-05-17 07:58:00,71.6,46.6,29.09,SSE,158,2.6,2.6,41,0.00,CLR,,0.00,WeatherDisplay:10.37,2013-05-17 12:58:00,
2013-05-17 07:59:00,71.6,46.6,29.09,SSE,158,2.3,2.3,41,0.00,CLR,,0.00,WeatherDisplay:10.37,2013-05-17 12:59:00,
2013-05-17 08:00:00,71.6,46.6,29.09,SSE,156,1.0,0.0,41,0.00,CLR,,0.00,WeatherDisplay:10.37,2013-05-17 13:00:00,
2013-05-17 08:02:00,71.8,47.4,29.09,SSE,158,1.1,0.0,42,0.00,CLR,,0.00,WeatherDisplay:10.37,2013-05-17 13:02:00,
2013-05-17 08:04:00,71.8,47.4,29.09,SSE,158,2.3,2.3,42,0.00,CLR,,0.00,WeatherDisplay:10.37,2013-05-17 13:04:00,
2013-05-17 08:05:00,71.8,47.4,29.09,ESE,112,2.3,2.3,42,0.00,CLR,,0.00,WeatherDisplay:10.37,2013-05-17 13:05:00,
2013-05-17 08:06:00,71.6,46.6,29.09,ESE,112,1.6,1.6,41,0.00,CLR,,0.00,WeatherDisplay:10.37,2013-05-17 13:06:00,
2013-05-17 08:09:00,71.6,46.6,29.09,SE,135,2.3,2.3,41,0.00,CLR,,0.00,WeatherDisplay:10.37,2013-05-17 13:09:00,
2013-05-17 08:11:00,71.6,46.6,29.09,SSE,158,2.3,2.3,41,0.00,CLR,,0.00,WeatherDisplay:10.37,2013-05-17 13:11:00,
2013-05-17 08:12:00,71.6,46.6,29.09,SSE,158,2.3,2.3,41,0.00,CLR,,0.00,WeatherDisplay:10.37,2013-05-17 13:12:00,
2013-05-17 08:13:00,71.6,46.6,29.09,East,90,1.1,0.0,41,0.00,CLR,,0.00,WeatherDisplay:10.37,2013-05-17 13:13:00,
2013-05-17 08:14:00,71.6,46.6,29.09,ESE,112,1.1,0.0,41,0.00,CLR,,0.00,WeatherDisplay:10.37,2013-05-17 13:14:00,
2013-05-17 08:18:00,72.0,47.0,29.09,SSE,158,2.3,2.3,41,0.00,CLR,,0.00,WeatherDisplay:10.37,2013-05-17 13:18:00,
2013-05-17 08:19:00,72.1,47.1,29.09,SE,135,1.1,1.1,41,0.00,CLR,,0.00,WeatherDisplay:10.37,2013-05-17 13:19:00,
2013-05-17 08:20:00,72.2,47.2,29.09,SE,137,1.0,0.0,41,0.00,CLR,,0.00,WeatherDisplay:10.37,2013-05-17 13:20:00,
2013-05-17 08:21:00,72.5,47.5,29.09,SE,135,3.5,3.5,41,0.00,CLR,,0.00,WeatherDisplay:10.37,2013-05-17 13:21:00,
2013-05-17 08:24:00,72.7,47.6,29.09,SSE,158,3.6,3.6,41,0.00,CLR,,0.00,WeatherDisplay:10.37,2013-05-17 13:24:00,
2013-05-17 08:25:00,73.0,48.6,29.09,SE,135,4.6,4.6,42,0.00,CLR,,0.00,WeatherDisplay:10.37,2013-05-17 13:25:00,
2013-05-17 08:26:00,73.2,48.7,29.09,SSE,158,4.6,4.6,42,0.00,CLR,,0.00,WeatherDisplay:10.37,2013-05-17 13:26:00,
2013-05-17 08:28:00,73.6,47.1,29.09,SE,135,3.5,3.5,39,0.00,CLR,,0.00,WeatherDisplay:10.37,2013-05-17 13:28:00,
2013-05-17 08:30:00,73.8,47.3,29.09,East,90,5.8,5.8,39,0.00,CLR,,0.00,WeatherDisplay:10.37,2013-05-17 13:30:00,
2013-05-17 08:31:00,73.9,47.4,29.09,South,180,2.3,2.4,39,0.00,CLR,,0.00,WeatherDisplay:10.37,2013-05-17 13:31:00,
2013-05-17 08:33:00,74.1,47.6,29.09,SSE,158,3.5,3.5,39,0.00,CLR,,0.00,WeatherDisplay:10.37,2013-05-17 13:33:00,
2013-05-17 08:34:00,74.1,46.9,29.09,SSE,158,3.5,3.5,38,0.00,CLR,,0.00,WeatherDisplay:10.37,2013-05-17 13:34:00,
2013-05-17 08:35:00,74.5,46.5,29.09,SSE,158,3.8,3.8,37,0.00,CLR,,0.00,WeatherDisplay:10.37,2013-05-17 13:35:00,
2013-05-17 08:37:00,74.5,46.5,29.09,SSW,202,3.5,3.5,37,0.00,CLR,,0.00,WeatherDisplay:10.37,2013-05-17 13:37:00,
2013-05-17 08:38:00,74.5,45.8,29.09,SSE,158,2.3,2.3,36,0.00,CLR,,0.00,WeatherDisplay:10.37,2013-05-17 13:38:00,
2013-05-17 08:39:00,74.5,45.8,29.09,SE,135,2.6,2.6,36,0.00,CLR,,0.00,WeatherDisplay:10.37,2013-05-17 13:39:00,
2013-05-17 08:40:00,74.7,46.7,29.09,East,90,2.6,2.6,37,0.00,CLR,,0.00,WeatherDisplay:10.37,2013-05-17 13:40:00,
2013-05-17 08:42:00,74.8,47.5,29.09,NNE,22,3.5,3.5,38,0.00,CLR,,0.00,WeatherDisplay:10.37,2013-05-17 13:42:00,
2013-05-17 08:44:00,73.9,45.3,29.09,ENE,68,3.5,3.5,36,0.00,CLR,,0.00,WeatherDisplay:10.37,2013-05-17 13:44:00,
2013-05-17 08:46:00,73.8,45.1,29.09,ENE,68,2.3,0.0,36,0.00,CLR,,0.00,WeatherDisplay:10.37,2013-05-17 13:46:00,
2013-05-17 08:48:00,73.8,45.1,29.09,ENE,68,2.3,2.3,36,0.00,CLR,,0.00,WeatherDisplay:10.37,2013-05-17 13:48:00,
2013-05-17 08:49:00,73.9,46.0,29.09,SSE,158,3.3,3.3,37,0.00,CLR,,0.00,WeatherDisplay:10.37,2013-05-17 13:49:00,
2013-05-17 08:50:00,73.9,45.3,29.09,East,94,2.0,0.0,36,0.00,CLR,,0.00,WeatherDisplay:10.37,2013-05-17 13:50:00,
2013-05-17 08:51:00,74.1,46.2,29.09,SSE,158,3.5,3.5,37,0.00,CLR,,0.00,WeatherDisplay:10.37,2013-05-17 13:51:00,
2013-05-17 08:53:00,74.3,46.3,29.09,ESE,112,5.8,5.8,37,0.00,CLR,,0.00,WeatherDisplay:10.37,2013-05-17 13:53:00,
2013-05-17 08:54:00,74.3,45.6,29.09,ESE,112,3.5,3.5,36,0.00,CLR,,0.00,WeatherDisplay:10.37,2013-05-17 13:54:00,
2013-05-17 08:55:00,74.3,45.6,29.09,ENE,68,3.5,0.0,36,0.00,CLR,,0.00,WeatherDisplay:10.37,2013-05-17 13:55:00,
2013-05-17 08:56:00,73.8,45.1,29.09,ENE,68,2.6,0.0,36,0.00,CLR,,0.00,WeatherDisplay:10.37,2013-05-17 13:56:00,
2013-05-17 08:58:00,73.8,45.1,29.09,East,90,3.5,3.5,36,0.00,CLR,,0.00,WeatherDisplay:10.37,2013-05-17 13:58:00,
2013-05-17 09:01:00,73.8,45.1,29.09,ENE,68,4.6,4.6,36,0.00,CLR,,0.00,WeatherDisplay:10.37,2013-05-17 14:01:00,
2013-05-17 09:03:00,73.9,45.3,29.09,East,90,2.3,2.3,36,0.00,CLR,,0.00,WeatherDisplay:10.37,2013-05-17 14:03:00,
2013-05-17 09:04:00,73.9,45.3,29.09,ESE,112,2.3,2.4,36,0.00,CLR,,0.00,WeatherDisplay:10.37,2013-05-17 14:04:00,
2013-05-17 09:06:00,74.3,44.9,29.09,ESE,112,2.3,0.0,35,0.00,CLR,,0.00,WeatherDisplay:10.37,2013-05-17 14:06:00,
2013-05-17 09:07:00,74.7,44.4,29.09,South,180,2.3,0.0,34,0.00,CLR,,0.00,WeatherDisplay:10.37,2013-05-17 14:07:00,
2013-05-17 09:10:00,75.0,46.2,29.09,ENE,74,1.0,0.0,36,0.00,CLR,,0.00,WeatherDisplay:10.37,2013-05-17 14:10:00,
2013-05-17 09:12:00,75.2,44.9,29.09,South,180,1.1,0.0,34,0.00,CLR,,0.00,WeatherDisplay:10.37,2013-05-17 14:12:00,
2013-05-17 09:13:00,75.6,45.2,29.09,NNE,22,1.1,1.1,34,0.00,CLR,,0.00,WeatherDisplay:10.37,2013-05-17 14:13:00,
2013-05-17 09:14:00,75.6,45.2,29.09,ENE,68,1.4,1.4,34,0.00,CLR,,0.00,WeatherDisplay:10.37,2013-05-17 14:14:00,
2013-05-17 09:15:00,75.5,44.3,29.09,South,170,1.0,0.0,33,0.00,CLR,,0.00,WeatherDisplay:10.37,2013-05-17 14:15:00,
2013-05-17 09:16:00,75.6,44.4,29.09,South,180,3.5,3.5,33,0.00,CLR,,0.00,WeatherDisplay:10.37,2013-05-17 14:16:00,
2013-05-17 09:19:00,75.7,45.4,29.09,East,90,2.3,2.4,34,0.00,CLR,,0.00,WeatherDisplay:10.37,2013-05-17 14:19:00,
2013-05-17 09:20:00,75.8,45.4,29.09,ESE,108,1.0,0.0,34,0.00,CLR,,0.00,WeatherDisplay:10.37,2013-05-17 14:20:00,
2013-05-17 09:21:00,75.9,44.7,29.09,East,90,2.9,0.0,33,0.00,CLR,,0.00,WeatherDisplay:10.37,2013-05-17 14:21:00,
2013-05-17 09:24:00,75.9,43.9,29.09,South,180,3.5,3.5,32,0.00,CLR,,0.00,WeatherDisplay:10.37,2013-05-17 14:24:00,
2013-05-17 09:25:00,75.9,43.9,29.09,ESE,117,2.0,0.0,32,0.00,CLR,,0.00,WeatherDisplay:10.37,2013-05-17 14:25:00,
2013-05-17 09:26:00,76.1,44.1,29.09,ENE,68,3.5,3.5,32,0.00,CLR,,0.00,WeatherDisplay:10.37,2013-05-17 14:26:00,
2013-05-17 09:29:00,75.9,43.9,29.09,ENE,68,2.6,2.6,32,0.00,CLR,,0.00,WeatherDisplay:10.37,2013-05-17 14:29:00,
2013-05-17 09:30:00,76.0,44.0,29.09,ESE,106,2.0,0.0,32,0.00,CLR,,0.00,WeatherDisplay:10.37,2013-05-17 14:30:00,
2013-05-17 09:31:00,76.1,44.1,29.09,ESE,112,3.5,3.5,32,0.00,CLR,,0.00,WeatherDisplay:10.37,2013-05-17 14:31:00,
2013-05-17 09:33:00,76.5,44.4,29.09,SE,135,2.4,2.4,32,0.00,CLR,,0.00,WeatherDisplay:10.37,2013-05-17 14:33:00,
2013-05-17 09:35:00,76.7,44.6,29.09,ESE,113,2.0,0.0,32,0.00,CLR,,0.00,WeatherDisplay:10.37,2013-05-17 14:35:00,
2013-05-17 09:37:00,76.8,43.9,29.09,ENE,68,2.3,0.0,31,0.00,CLR,,0.00,WeatherDisplay:10.37,2013-05-17 14:37:00,
2013-05-17 09:38:00,77.0,44.9,29.09,ENE,68,5.4,5.4,32,0.00,CLR,,0.00,WeatherDisplay:10.37,2013-05-17 14:38:00,
2013-05-17 09:43:00,76.5,43.6,29.09,ENE,68,3.6,3.6,31,0.00,CLR,,0.00,WeatherDisplay:10.37,2013-05-17 14:43:00,
2013-05-17 09:45:00,76.6,43.7,29.09,SE,135,4.6,4.6,31,0.00,CLR,,0.00,WeatherDisplay:10.37,2013-05-17 14:45:00,
2013-05-17 09:47:00,76.6,43.7,29.09,East,90,4.6,4.6,31,0.00,CLR,,0.00,WeatherDisplay:10.37,2013-05-17 14:47:00,
2013-05-17 09:49:00,76.6,43.7,29.09,East,90,3.6,3.6,31,0.00,CLR,,0.00,WeatherDisplay:10.37,2013-05-17 14:49:00,
2013-05-17 09:50:00,76.6,43.7,29.09,ESE,112,3.5,3.5,31,0.00,CLR,,0.00,WeatherDisplay:10.37,2013-05-17 14:50:00,
2013-05-17 09:51:00,77.0,44.0,29.09,ESE,112,2.3,2.3,31,0.00,CLR,,0.00,WeatherDisplay:10.37,2013-05-17 14:51:00,
2013-05-17 09:53:00,76.8,43.9,29.09,ESE,112,3.5,3.5,31,0.00,CLR,,0.00,WeatherDisplay:10.37,2013-05-17 14:53:00,
2013-05-17 09:54:00,77.0,44.0,29.09,NNE,22,2.0,0.0,31,0.00,CLR,,0.00,WeatherDisplay:10.37,2013-05-17 14:54:00,
2013-05-17 09:58:00,77.2,44.2,29.09,East,90,4.6,4.6,31,0.00,CLR,,0.00,WeatherDisplay:10.37,2013-05-17 14:58:00,
2013-05-17 09:59:00,77.5,44.5,29.09,SE,135,3.6,3.6,31,0.00,CLR,,0.00,WeatherDisplay:10.37,2013-05-17 14:59:00,
2013-05-17 10:00:00,77.5,44.5,29.09,ENE,68,4.0,4.0,31,0.00,CLR,,0.00,WeatherDisplay:10.37,2013-05-17 15:00:00,
2013-05-17 10:01:00,77.7,44.7,29.09,East,90,4.6,4.6,31,0.00,CLR,,0.00,WeatherDisplay:10.37,2013-05-17 15:01:00,
2013-05-17 10:05:00,78.4,45.3,29.09,ESE,112,4.6,4.6,31,0.00,CLR,,0.00,WeatherDisplay:10.37,2013-05-17 15:05:00,
2013-05-17 10:07:00,79.0,45.8,29.09,South,180,7.4,7.4,31,0.00,CLR,,0.00,WeatherDisplay:10.37,2013-05-17 15:07:00,
2013-05-17 10:08:00,79.3,46.1,29.09,SSE,158,6.9,6.9,31,0.00,CLR,,0.00,WeatherDisplay:10.37,2013-05-17 15:08:00,
2013-05-17 10:11:00,79.5,44.5,29.09,East,90,5.8,5.8,29,0.00,CLR,,0.00,WeatherDisplay:10.37,2013-05-17 15:11:00,
2013-05-17 10:12:00,79.5,45.4,29.09,ESE,112,5.8,5.8,30,0.00,CLR,,0.00,WeatherDisplay:10.37,2013-05-17 15:12:00,
2013-05-17 10:13:00,79.2,41.3,29.09,ESE,112,6.9,6.9,26,0.00,CLR,,0.00,WeatherDisplay:10.37,2013-05-17 15:13:00,
2013-05-17 10:14:00,79.2,39.2,29.09,SE,135,3.5,4.0,24,0.00,CLR,,0.00,WeatherDisplay:10.37,2013-05-17 15:14:00,
2013-05-17 10:16:00,79.3,42.4,29.09,SSW,202,3.5,3.5,27,0.00,CLR,,0.00,WeatherDisplay:10.37,2013-05-17 15:16:00,
2013-05-17 10:17:00,79.3,42.4,29.09,SSE,158,2.3,2.3,27,0.00,CLR,,0.00,WeatherDisplay:10.37,2013-05-17 15:17:00,
2013-05-17 10:19:00,79.9,43.9,29.09,South,180,4.6,4.6,28,0.00,CLR,,0.00,WeatherDisplay:10.37,2013-05-17 15:19:00,
2013-05-17 10:20:00,79.9,43.9,29.09,SE,139,3.0,0.0,28,0.00,CLR,,0.00,WeatherDisplay:10.37,2013-05-17 15:20:00,
2013-05-17 10:21:00,79.9,41.9,29.12,SSE,158,5.8,5.8,26,0.00,CLR,,0.00,WeatherDisplay:10.37,2013-05-17 15:21:00,
2013-05-17 10:24:00,80.4,43.4,29.12,SSE,158,4.6,4.6,27,0.00,CLR,,0.00,WeatherDisplay:10.37,2013-05-17 15:24:00,
2013-05-17 10:25:00,80.6,43.5,29.12,SE,135,9.2,9.2,27,0.00,CLR,,0.00,WeatherDisplay:10.37,2013-05-17 15:25:00,
2013-05-17 10:29:00,80.8,43.7,29.12,WSW,248,5.8,5.8,27,0.00,CLR,,0.00,WeatherDisplay:10.37,2013-05-17 15:29:00,
2013-05-17 10:30:00,80.8,43.7,29.12,SE,142,3.0,0.0,27,0.00,CLR,,0.00,WeatherDisplay:10.37,2013-05-17 15:30:00,
2013-05-17 10:33:00,80.2,41.2,29.12,ESE,112,5.8,5.8,25,0.00,CLR,,0.00,WeatherDisplay:10.37,2013-05-17 15:33:00,
2013-05-17 10:34:00,80.4,41.4,29.12,SE,135,5.8,5.8,25,0.00,CLR,,0.00,WeatherDisplay:10.37,2013-05-17 15:34:00,
2013-05-17 10:35:00,80.4,42.4,29.12,NE,45,5.8,5.8,26,0.00,CLR,,0.00,WeatherDisplay:10.37,2013-05-17 15:35:00,
2013-05-17 10:39:00,80.6,43.5,29.09,SSW,202,8.5,8.5,27,0.00,CLR,,0.00,WeatherDisplay:10.37,2013-05-17 15:39:00,
2013-05-17 10:40:00,80.8,41.7,29.09,South,180,8.1,8.1,25,0.00,CLR,,0.00,WeatherDisplay:10.37,2013-05-17 15:40:00,
2013-05-17 10:41:00,80.8,41.7,29.09,SE,135,7.8,7.8,25,0.00,CLR,,0.00,WeatherDisplay:10.37,2013-05-17 15:41:00,
2013-05-17 10:44:00,80.4,41.4,29.09,ENE,68,5.8,5.8,25,0.00,CLR,,0.00,WeatherDisplay:10.37,2013-05-17 15:44:00,
2013-05-17 10:47:00,81.0,41.8,29.09,SSE,158,6.9,6.9,25,0.00,CLR,,0.00,WeatherDisplay:10.37,2013-05-17 15:47:00,
2013-05-17 10:48:00,81.3,43.1,29.09,ENE,68,6.9,6.9,26,0.00,CLR,,0.00,WeatherDisplay:10.37,2013-05-17 15:48:00,
2013-05-17 10:49:00,81.5,42.3,29.09,ESE,112,8.1,8.1,25,0.00,CLR,,0.00,WeatherDisplay:10.37,2013-05-17 15:49:00,
2013-05-17 10:52:00,81.7,43.5,29.12,SSE,158,6.2,0.0,26,0.00,CLR,,0.00,WeatherDisplay:10.37,2013-05-17 15:52:00,
2013-05-17 10:53:00,81.9,43.6,29.12,SSE,158,5.8,5.8,26,0.00,CLR,,0.00,WeatherDisplay:10.37,2013-05-17 15:53:00,
2013-05-17 10:54:00,81.9,43.6,29.12,East,90,4.6,4.6,26,0.00,CLR,,0.00,WeatherDisplay:10.37,2013-05-17 15:54:00,
2013-05-17 10:55:00,82.2,42.9,29.12,South,180,0.0,0.0,25,0.00,CLR,,0.00,WeatherDisplay:10.37,2013-05-17 15:55:00,
2013-05-17 10:56:00,82.2,41.8,29.12,South,180,3.5,0.0,24,0.00,CLR,,0.00,WeatherDisplay:10.37,2013-05-17 15:56:00,
2013-05-17 10:57:00,82.2,42.9,29.12,SSW,202,3.5,3.5,25,0.00,CLR,,0.00,WeatherDisplay:10.37,2013-05-17 15:57:00,
2013-05-17 10:58:00,82.2,43.9,29.12,ESE,112,6.4,6.4,26,0.00,CLR,,0.00,WeatherDisplay:10.37,2013-05-17 15:58:00,
2013-05-17 10:59:00,82.2,43.9,29.12,SSE,158,8.1,8.1,26,0.00,CLR,,0.00,WeatherDisplay:10.37,2013-05-17 15:59:00,
2013-05-17 11:01:00,82.2,43.9,29.12,SE,135,6.9,6.9,26,0.00,CLR,,0.00,WeatherDisplay:10.37,2013-05-17 16:01:00,
2013-05-17 11:02:00,82.2,43.9,29.12,South,180,6.9,6.9,26,0.00,CLR,,0.00,WeatherDisplay:10.37,2013-05-17 16:02:00,
2013-05-17 11:05:00,82.2,43.9,29.12,SSE,158,8.1,8.1,26,0.00,CLR,,0.00,WeatherDisplay:10.37,2013-05-17 16:05:00,
2013-05-17 11:07:00,82.2,43.9,29.09,SSE,158,6.9,6.9,26,0.00,CLR,,0.00,WeatherDisplay:10.37,2013-05-17 16:07:00,
2013-05-17 11:08:00,82.2,43.9,29.09,SSE,158,4.6,4.6,26,0.00,CLR,,0.00,WeatherDisplay:10.37,2013-05-17 16:08:00,
2013-05-17 11:12:00,82.2,43.9,29.09,South,180,4.6,4.6,26,0.00,CLR,,0.00,WeatherDisplay:10.37,2013-05-17 16:12:00,
2013-05-17 11:13:00,82.2,43.9,29.09,SSE,158,4.6,4.6,26,0.00,CLR,,0.00,WeatherDisplay:10.37,2013-05-17 16:13:00,
2013-05-17 11:14:00,82.2,43.9,29.09,SSE,158,3.8,3.8,26,0.00,CLR,,0.00,WeatherDisplay:10.37,2013-05-17 16:14:00,
2013-05-17 11:15:00,82.2,43.9,29.09,South,180,6.2,6.2,26,0.00,CLR,,0.00,WeatherDisplay:10.37,2013-05-17 16:15:00,
2013-05-17 11:16:00,83.7,45.1,29.09,South,180,5.8,6.9,26,0.00,CLR,,0.00,WeatherDisplay:10.37,2013-05-17 16:16:00,
2013-05-17 11:18:00,83.8,44.3,29.09,SSE,158,7.1,7.1,25,0.00,CLR,,0.00,WeatherDisplay:10.37,2013-05-17 16:18:00,
2013-05-17 11:19:00,83.8,44.3,29.09,SSE,158,6.9,6.9,25,0.00,CLR,,0.00,WeatherDisplay:10.37,2013-05-17 16:19:00,
2013-05-17 11:20:00,83.8,44.3,29.09,SSE,158,6.2,6.2,25,0.00,CLR,,0.00,WeatherDisplay:10.37,2013-05-17 16:20:00,
2013-05-17 11:21:00,84.0,45.4,29.12,SSE,158,5.8,5.8,26,0.00,CLR,,0.00,WeatherDisplay:10.37,2013-05-17 16:21:00,
2013-05-17 11:23:00,83.7,44.1,29.12,East,90,4.6,4.6,25,0.00,CLR,,0.00,WeatherDisplay:10.37,2013-05-17 16:23:00,
2013-05-17 11:25:00,82.6,41.0,29.12,SE,135,8.1,8.1,23,0.00,CLR,,0.00,WeatherDisplay:10.37,2013-05-17 16:25:00,
2013-05-17 11:26:00,82.0,40.6,29.12,SE,135,5.8,5.8,23,0.00,CLR,,0.00,WeatherDisplay:10.37,2013-05-17 16:26:00,
2013-05-17 11:27:00,82.0,41.7,29.12,NE,45,5.8,5.8,24,0.00,CLR,,0.00,WeatherDisplay:10.37,2013-05-17 16:27:00,
2013-05-17 11:30:00,82.0,40.6,29.12,ENE,68,7.4,7.4,23,0.00,CLR,,0.00,WeatherDisplay:10.37,2013-05-17 16:30:00,
2013-05-17 11:32:00,82.0,41.7,29.12,SE,135,6.9,6.9,24,0.00,CLR,,0.00,WeatherDisplay:10.37,2013-05-17 16:32:00,
2013-05-17 11:33:00,82.2,40.7,29.12,ESE,112,8.1,8.1,23,0.00,CLR,,0.00,WeatherDisplay:10.37,2013-05-17 16:33:00,
2013-05-17 11:34:00,82.2,40.7,29.12,East,90,5.8,5.8,23,0.00,CLR,,0.00,WeatherDisplay:10.37,2013-05-17 16:34:00,
2013-05-17 11:35:00,82.2,42.9,29.12,ESE,112,4.6,4.6,25,0.00,CLR,,0.00,WeatherDisplay:10.37,2013-05-17 16:35:00,
2013-05-17 11:37:00,82.4,42.0,29.09,ESE,112,3.5,3.5,24,0.00,CLR,,0.00,WeatherDisplay:10.37,2013-05-17 16:37:00,
2013-05-17 11:39:00,82.6,42.1,29.09,South,180,7.1,7.1,24,0.00,CLR,,0.00,WeatherDisplay:10.37,2013-05-17 16:39:00,
2013-05-17 11:40:00,82.2,41.8,29.09,SE,135,6.9,6.9,24,0.00,CLR,,0.00,WeatherDisplay:10.37,2013-05-17 16:40:00,
2013-05-17 11:41:00,82.4,43.0,29.09,SSE,158,9.2,9.2,25,0.00,CLR,,0.00,WeatherDisplay:10.37,2013-05-17 16:41:00,
2013-05-17 11:44:00,82.0,42.7,29.09,ESE,112,9.2,9.2,25,0.00,CLR,,0.00,WeatherDisplay:10.37,2013-05-17 16:44:00,
2013-05-17 11:45:00,82.0,42.7,29.09,SE,145,6.0,0.0,25,0.00,CLR,,0.00,WeatherDisplay:10.37,2013-05-17 16:45:00,
2013-05-17 11:49:00,82.0,43.8,29.09,SSE,158,5.8,5.8,26,0.00,CLR,,0.00,WeatherDisplay:10.37,2013-05-17 16:49:00,
2013-05-17 11:50:00,82.4,43.0,29.09,ESE,112,8.1,8.1,25,0.00,CLR,,0.00,WeatherDisplay:10.37,2013-05-17 16:50:00,
2013-05-17 11:51:00,82.8,42.3,29.12,ESE,112,8.1,8.1,24,0.00,CLR,,0.00,WeatherDisplay:10.37,2013-05-17 16:51:00,
2013-05-17 11:54:00,82.8,41.2,29.12,South,180,10.4,10.4,23,0.00,CLR,,0.00,WeatherDisplay:10.37,2013-05-17 16:54:00,
2013-05-17 11:55:00,82.8,41.2,29.12,ESE,113,5.0,0.0,23,0.00,CLR,,0.00,WeatherDisplay:10.37,2013-05-17 16:55:00,
2013-05-17 11:56:00,83.1,42.6,29.12,ESE,112,7.1,7.1,24,0.00,CLR,,0.00,WeatherDisplay:10.37,2013-05-17 16:56:00,
2013-05-17 11:59:00,83.3,42.7,29.12,South,180,8.1,8.1,24,0.00,CLR,,0.00,WeatherDisplay:10.37,2013-05-17 16:59:00,
2013-05-17 12:01:00,83.5,42.9,29.12,SSE,158,9.2,9.2,24,0.00,CLR,,0.00,WeatherDisplay:10.37,2013-05-17 17:01:00,
2013-05-17 12:02:00,83.5,42.9,29.12,SE,135,8.7,8.7,24,0.00,CLR,,0.00,WeatherDisplay:10.37,2013-05-17 17:02:00,
2013-05-17 12:04:00,83.8,44.3,29.12,WSW,248,8.1,8.1,25,0.00,CLR,,0.00,WeatherDisplay:10.37,2013-05-17 17:04:00,
2013-05-17 12:06:00,83.7,43.0,29.09,ESE,112,5.8,5.8,24,0.00,CLR,,0.00,WeatherDisplay:10.37,2013-05-17 17:06:00,
2013-05-17 12:07:00,83.8,42.1,29.09,WSW,248,6.9,6.9,23,0.00,CLR,,0.00,WeatherDisplay:10.37,2013-05-17 17:07:00,
2013-05-17 12:08:00,83.8,42.1,29.09,SSW,202,4.0,4.0,23,0.00,CLR,,0.00,WeatherDisplay:10.37,2013-05-17 17:08:00,
2013-05-17 12:10:00,84.1,43.4,29.09,South,185,5.0,0.0,24,0.00,CLR,,0.00,WeatherDisplay:10.37,2013-05-17 17:10:00,
2013-05-17 12:11:00,84.6,43.8,29.09,East,90,6.9,6.9,24,0.00,CLR,,0.00,WeatherDisplay:10.37,2013-05-17 17:11:00,
2013-05-17 12:12:00,84.9,43.0,29.09,SSE,158,5.8,5.8,23,0.00,CLR,,0.00,WeatherDisplay:10.37,2013-05-17 17:12:00,
2013-05-17 12:14:00,84.9,44.1,29.09,SSE,158,6.2,6.2,24,0.00,CLR,,0.00,WeatherDisplay:10.37,2013-05-17 17:14:00,
2013-05-17 12:15:00,84.9,44.1,29.09,SSE,163,3.0,0.0,24,0.00,CLR,,0.00,WeatherDisplay:10.37,2013-05-17 17:15:00,
2013-05-17 12:18:00,85.6,43.6,29.09,SW,225,8.1,8.1,23,0.00,CLR,,0.00,WeatherDisplay:10.37,2013-05-17 17:18:00,
2013-05-17 12:19:00,85.6,43.6,29.09,SSW,202,9.2,9.2,23,0.00,CLR,,0.00,WeatherDisplay:10.37,2013-05-17 17:19:00,
2013-05-17 12:20:00,85.6,43.6,29.09,SSE,167,7.0,0.0,23,0.00,CLR,,0.00,WeatherDisplay:10.37,2013-05-17 17:20:00,
2013-05-17 12:23:00,85.3,40.9,29.12,South,180,9.2,9.2,21,0.00,CLR,,0.00,WeatherDisplay:10.37,2013-05-17 17:23:00,
2013-05-17 12:26:00,84.9,41.8,29.12,South,180,9.2,9.2,22,0.00,CLR,,0.00,WeatherDisplay:10.37,2013-05-17 17:26:00,
2013-05-17 12:30:00,85.3,42.1,29.12,SSE,158,6.0,0.0,22,0.00,CLR,,0.00,WeatherDisplay:10.37,2013-05-17 17:30:00,
2013-05-17 12:31:00,85.5,41.1,29.12,SSE,158,9.2,9.2,21,0.00,CLR,,0.00,WeatherDisplay:10.37,2013-05-17 17:31:00,
2013-05-17 12:32:00,85.1,40.8,29.12,ENE,68,8.1,8.1,21,0.00,CLR,,0.00,WeatherDisplay:10.37,2013-05-17 17:32:00,
2013-05-17 12:35:00,84.9,40.6,29.12,SE,141,3.0,0.0,21,0.00,CLR,,0.00,WeatherDisplay:10.37,2013-05-17 17:35:00,
2013-05-17 12:36:00,84.6,41.5,29.09,South,180,4.6,4.6,22,0.00,CLR,,0.00,WeatherDisplay:10.37,2013-05-17 17:36:00,
2013-05-17 12:40:00,84.6,40.4,29.09,SE,143,2.0,0.0,21,0.00,CLR,,0.00,WeatherDisplay:10.37,2013-05-17 17:40:00,
2013-05-17 12:41:00,84.7,41.7,29.09,ESE,112,4.6,4.6,22,0.00,CLR,,0.00,WeatherDisplay:10.37,2013-05-17 17:41:00,
2013-05-17 12:43:00,84.0,41.1,29.09,East,90,3.8,3.8,22,0.00,CLR,,0.00,WeatherDisplay:10.37,2013-05-17 17:43:00,
2013-05-17 12:46:00,84.4,40.2,29.09,SE,135,10.4,10.4,21,0.00,CLR,,0.00,WeatherDisplay:10.37,2013-05-17 17:46:00,
2013-05-17 12:47:00,84.4,40.2,29.09,SSE,158,9.2,9.2,21,0.00,CLR,,0.00,WeatherDisplay:10.37,2013-05-17 17:47:00,
2013-05-17 12:48:00,84.6,40.3,29.09,SSE,158,6.9,6.9,21,0.00,CLR,,0.00,WeatherDisplay:10.37,2013-05-17 17:48:00,
2013-05-17 12:52:00,84.9,40.6,29.09,SSE,158,5.8,5.8,21,0.00,CLR,,0.00,WeatherDisplay:10.37,2013-05-17 17:52:00,
2013-05-17 12:53:00,85.3,42.1,29.09,SSE,158,3.5,3.5,22,0.00,CLR,,0.00,WeatherDisplay:10.37,2013-05-17 17:53:00,
2013-05-17 12:54:00,85.3,42.1,29.09,SSE,158,8.1,8.1,22,0.00,CLR,,0.00,WeatherDisplay:10.37,2013-05-17 17:54:00,
2013-05-17 12:57:00,85.1,40.8,29.09,NE,45,8.1,8.1,21,0.00,CLR,,0.00,WeatherDisplay:10.37,2013-05-17 17:57:00,
2013-05-17 12:58:00,84.9,40.6,29.09,East,90,5.8,5.8,21,0.00,CLR,,0.00,WeatherDisplay:10.37,2013-05-17 17:58:00,
2013-05-17 12:59:00,84.7,40.5,29.09,ESE,112,6.9,6.9,21,0.00,CLR,,0.00,WeatherDisplay:10.37,2013-05-17 17:59:00,
2013-05-17 13:00:00,84.7,40.5,29.09,SSE,158,6.9,6.9,21,0.00,CLR,,0.00,WeatherDisplay:10.37,2013-05-17 18:00:00,
2013-05-17 13:04:00,84.9,41.8,29.09,SE,135,6.9,6.9,22,0.00,CLR,,0.00,WeatherDisplay:10.37,2013-05-17 18:04:00,
2013-05-17 13:05:00,84.9,41.8,29.09,West,270,8.1,8.1,22,0.00,CLR,,0.00,WeatherDisplay:10.37,2013-05-17 18:05:00,
2013-05-17 13:08:00,85.8,42.6,29.06,SE,135,6.9,6.9,22,0.00,CLR,,0.00,WeatherDisplay:10.37,2013-05-17 18:08:00,
2013-05-17 13:10:00,85.8,42.6,29.06,South,180,15.0,15.0,22,0.00,CLR,,0.00,WeatherDisplay:10.37,2013-05-17 18:10:00,
2013-05-17 13:11:00,85.8,42.6,29.06,SE,135,10.4,10.4,22,0.00,CLR,,0.00,WeatherDisplay:10.37,2013-05-17 18:11:00,
2013-05-17 13:14:00,85.6,41.2,29.06,South,180,12.7,12.7,21,0.00,CLR,,0.00,WeatherDisplay:10.37,2013-05-17 18:14:00,
2013-05-17 13:16:00,85.3,39.7,29.06,East,90,12.7,12.7,20,0.00,CLR,,0.00,WeatherDisplay:10.37,2013-05-17 18:16:00,
2013-05-17 13:17:00,84.9,39.4,29.06,ESE,112,12.7,12.7,20,0.00,CLR,,0.00,WeatherDisplay:10.37,2013-05-17 18:17:00,
2013-05-17 13:18:00,84.9,39.4,29.06,SSE,158,12.5,12.5,20,0.00,CLR,,0.00,WeatherDisplay:10.37,2013-05-17 18:18:00,
2013-05-17 13:21:00,84.6,39.1,29.09,SSE,158,10.4,10.4,20,0.00,CLR,,0.00,WeatherDisplay:10.37,2013-05-17 18:21:00,
2013-05-17 13:22:00,84.6,39.1,29.09,South,180,13.8,13.8,20,0.00,CLR,,0.00,WeatherDisplay:10.37,2013-05-17 18:22:00,
2013-05-17 13:24:00,84.4,38.9,29.09,ESE,112,10.4,10.4,20,0.00,CLR,,0.00,WeatherDisplay:10.37,2013-05-17 18:24:00,
2013-05-17 13:25:00,84.4,38.9,29.09,SE,139,7.0,0.0,20,0.00,CLR,,0.00,WeatherDisplay:10.37,2013-05-17 18:25:00,
2013-05-17 13:27:00,83.7,39.6,29.09,SE,135,8.1,8.1,21,0.00,CLR,,0.00,WeatherDisplay:10.37,2013-05-17 18:27:00,
2013-05-17 13:28:00,83.7,39.6,29.09,South,180,13.8,13.8,21,0.00,CLR,,0.00,WeatherDisplay:10.37,2013-05-17 18:28:00,
2013-05-17 13:30:00,83.3,39.3,29.09,South,180,4.6,4.6,21,0.00,CLR,,0.00,WeatherDisplay:10.37,2013-05-17 18:30:00,
2013-05-17 13:32:00,82.9,39.0,29.09,ESE,112,11.5,11.5,21,0.00,CLR,,0.00,WeatherDisplay:10.37,2013-05-17 18:32:00,
2013-05-17 13:33:00,82.9,39.0,29.09,SSE,158,5.8,5.8,21,0.00,CLR,,0.00,WeatherDisplay:10.37,2013-05-17 18:33:00,
2013-05-17 13:35:00,82.9,39.0,29.09,SE,135,5.8,5.8,21,0.00,CLR,,0.00,WeatherDisplay:10.37,2013-05-17 18:35:00,
2013-05-17 13:37:00,82.8,38.8,29.06,ESE,112,11.4,11.4,21,0.00,CLR,,0.00,WeatherDisplay:10.37,2013-05-17 18:37:00,
2013-05-17 13:39:00,82.0,39.4,29.06,SE,135,10.4,10.4,22,0.00,CLR,,0.00,WeatherDisplay:10.37,2013-05-17 18:39:00,
2013-05-17 13:40:00,82.1,39.5,29.06,SE,146,7.0,0.0,22,0.00,CLR,,0.00,WeatherDisplay:10.37,2013-05-17 18:40:00,
2013-05-17 13:42:00,81.5,40.1,29.06,South,180,5.8,5.8,23,0.00,CLR,,0.00,WeatherDisplay:10.37,2013-05-17 18:42:00,
2013-05-17 13:45:00,81.0,39.7,29.06,ESE,112,9.2,9.2,23,0.00,CLR,,0.00,WeatherDisplay:10.37,2013-05-17 18:45:00,
2013-05-17 13:46:00,81.0,39.7,29.06,SE,135,6.9,6.9,23,0.00,CLR,,0.00,WeatherDisplay:10.37,2013-05-17 18:46:00,
2013-05-17 13:49:00,80.8,40.6,29.06,SSW,202,9.2,9.2,24,0.00,CLR,,0.00,WeatherDisplay:10.37,2013-05-17 18:49:00,
2013-05-17 13:50:00,80.7,40.5,29.06,SSE,147,6.0,0.0,24,0.00,CLR,,0.00,WeatherDisplay:10.37,2013-05-17 18:50:00,
2013-05-17 13:54:00,80.4,42.4,29.09,South,180,5.6,5.6,26,0.00,CLR,,0.00,WeatherDisplay:10.37,2013-05-17 18:54:00,
2013-05-17 13:55:00,80.4,42.4,29.09,SSE,154,3.0,0.0,26,0.00,CLR,,0.00,WeatherDisplay:10.37,2013-05-17 18:55:00,
2013-05-17 13:56:00,80.2,43.2,29.09,ESE,112,9.2,9.2,27,0.00,CLR,,0.00,WeatherDisplay:10.37,2013-05-17 18:56:00,
2013-05-17 13:59:00,80.4,43.4,29.09,SE,135,5.8,5.8,27,0.00,CLR,,0.00,WeatherDisplay:10.37,2013-05-17 18:59:00,
2013-05-17 14:00:00,80.3,43.2,29.09,SE,132,5.0,0.0,27,0.00,CLR,,0.00,WeatherDisplay:10.37,2013-05-17 19:00:00,
2013-05-17 14:01:00,80.4,45.2,29.09,ESE,112,3.5,3.5,29,0.00,CLR,,0.00,WeatherDisplay:10.37,2013-05-17 19:01:00,
2013-05-17 14:04:00,80.4,46.1,29.09,SSE,158,9.2,9.2,30,0.00,CLR,,0.00,WeatherDisplay:10.37,2013-05-17 19:04:00,
2013-05-17 14:05:00,80.4,46.1,29.09,SE,134,5.0,0.0,30,0.00,CLR,,0.00,WeatherDisplay:10.37,2013-05-17 19:05:00,
2013-05-17 14:06:00,80.1,45.8,29.06,South,180,5.8,5.8,30,0.00,CLR,,0.00,WeatherDisplay:10.37,2013-05-17 19:06:00,
2013-05-17 14:08:00,80.1,44.9,29.06,ESE,112,9.2,9.2,29,0.00,CLR,,0.00,WeatherDisplay:10.37,2013-05-17 19:08:00,
2013-05-17 14:11:00,80.1,44.9,29.06,South,180,5.8,5.8,29,0.00,CLR,,0.00,WeatherDisplay:10.37,2013-05-17 19:11:00,
2013-05-17 14:13:00,79.9,44.8,29.06,SE,135,4.3,4.3,29,0.00,CLR,,0.00,WeatherDisplay:10.37,2013-05-17 19:13:00,
2013-05-17 14:14:00,80.1,45.8,29.06,South,180,4.6,4.6,30,0.00,CLR,,0.00,WeatherDisplay:10.37,2013-05-17 19:14:00,
2013-05-17 14:18:00,80.1,45.8,29.06,ENE,68,2.4,0.0,30,0.00,CLR,,0.00,WeatherDisplay:10.37,2013-05-17 19:18:00,
2013-05-17 14:19:00,80.1,45.8,29.06,ENE,68,3.5,3.5,30,0.00,CLR,,0.00,WeatherDisplay:10.37,2013-05-17 19:19:00,
2013-05-17 14:20:00,79.9,45.7,29.06,SE,135,3.5,3.5,30,0.00,CLR,,0.00,WeatherDisplay:10.37,2013-05-17 19:20:00,
2013-05-17 14:21:00,79.7,45.5,29.06,ESE,112,4.6,4.6,30,0.00,CLR,,0.00,WeatherDisplay:10.37,2013-05-17 19:21:00,
2013-05-17 14:22:00,79.9,45.7,29.06,SSE,158,5.8,5.8,30,0.00,CLR,,0.00,WeatherDisplay:10.37,2013-05-17 19:22:00,
2013-05-17 14:24:00,80.1,45.8,29.06,ESE,112,3.8,3.8,30,0.00,CLR,,0.00,WeatherDisplay:10.37,2013-05-17 19:24:00,
2013-05-17 14:25:00,80.1,45.8,29.06,East,90,3.5,3.5,30,0.00,CLR,,0.00,WeatherDisplay:10.37,2013-05-17 19:25:00,
2013-05-17 14:27:00,80.2,46.0,29.06,South,180,3.6,3.6,30,0.00,CLR,,0.00,WeatherDisplay:10.37,2013-05-17 19:27:00,
2013-05-17 14:28:00,80.4,46.1,29.06,South,180,3.5,3.5,30,0.00,CLR,,0.00,WeatherDisplay:10.37,2013-05-17 19:28:00,
2013-05-17 14:30:00,80.2,46.0,29.06,ESE,112,6.7,6.7,30,0.00,CLR,,0.00,WeatherDisplay:10.37,2013-05-17 19:30:00,
2013-05-17 14:33:00,80.2,46.0,29.06,East,90,2.3,2.3,30,0.00,CLR,,0.00,WeatherDisplay:10.37,2013-05-17 19:33:00,
2013-05-17 14:34:00,80.1,45.8,29.06,NE,45,2.0,0.0,30,0.00,CLR,,0.00,WeatherDisplay:10.37,2013-05-17 19:34:00,
2013-05-17 14:36:00,80.2,46.0,29.09,ENE,68,3.5,3.5,30,0.00,CLR,,0.00,WeatherDisplay:10.37,2013-05-17 19:36:00,
2013-05-17 14:37:00,80.2,46.0,29.09,East,90,4.0,4.0,30,0.00,CLR,,0.00,WeatherDisplay:10.37,2013-05-17 19:37:00,
2013-05-17 14:38:00,80.2,46.0,29.09,East,90,5.8,5.8,30,0.00,CLR,,0.00,WeatherDisplay:10.37,2013-05-17 19:38:00,
2013-05-17 14:40:00,80.4,46.1,29.09,SE,125,3.0,0.0,30,0.00,CLR,,0.00,WeatherDisplay:10.37,2013-05-17 19:40:00,
2013-05-17 14:41:00,80.4,46.1,29.09,East,90,3.5,3.5,30,0.00,CLR,,0.00,WeatherDisplay:10.37,2013-05-17 19:41:00,
2013-05-17 14:42:00,80.6,46.3,29.09,SW,225,3.5,3.5,30,0.00,CLR,,0.00,WeatherDisplay:10.37,2013-05-17 19:42:00,
2013-05-17 14:43:00,80.8,46.4,29.09,East,90,5.9,5.9,30,0.00,CLR,,0.00,WeatherDisplay:10.37,2013-05-17 19:43:00,
2013-05-17 14:47:00,80.4,46.1,29.09,ENE,68,6.0,6.0,30,0.00,CLR,,0.00,WeatherDisplay:10.37,2013-05-17 19:47:00,
2013-05-17 14:48:00,80.4,46.1,29.09,ESE,112,8.1,8.1,30,0.00,CLR,,0.00,WeatherDisplay:10.37,2013-05-17 19:48:00,
2013-05-17 14:49:00,80.4,46.1,29.09,ENE,68,5.8,5.8,30,0.00,CLR,,0.00,WeatherDisplay:10.37,2013-05-17 19:49:00,
2013-05-17 14:53:00,79.5,45.4,29.06,East,90,8.1,8.1,30,0.00,CLR,,0.00,WeatherDisplay:10.37,2013-05-17 19:53:00,
2013-05-17 14:55:00,79.6,45.4,29.06,East,92,5.0,0.0,30,0.00,CLR,,0.00,WeatherDisplay:10.37,2013-05-17 19:55:00,
2013-05-17 14:56:00,79.3,46.1,29.06,ESE,112,3.5,3.5,31,0.00,CLR,,0.00,WeatherDisplay:10.37,2013-05-17 19:56:00,
2013-05-17 14:59:00,79.3,46.1,29.06,ENE,68,5.6,5.6,31,0.00,CLR,,0.00,WeatherDisplay:10.37,2013-05-17 19:59:00,
2013-05-17 15:00:00,79.5,46.2,29.06,North,0,5.8,5.8,31,0.00,CLR,,0.00,WeatherDisplay:10.37,2013-05-17 20:00:00,
2013-05-17 15:02:00,79.3,46.1,29.06,SSE,158,5.8,5.8,31,0.00,CLR,,0.00,WeatherDisplay:10.37,2013-05-17 20:02:00,
2013-05-17 15:03:00,79.5,46.2,29.06,East,90,5.8,5.8,31,0.00,CLR,,0.00,WeatherDisplay:10.37,2013-05-17 20:03:00,
2013-05-17 15:04:00,79.9,46.5,29.06,South,180,5.8,5.8,31,0.00,CLR,,0.00,WeatherDisplay:10.37,2013-05-17 20:04:00,
2013-05-17 15:06:00,80.1,46.7,29.09,East,90,4.7,4.7,31,0.00,CLR,,0.00,WeatherDisplay:10.37,2013-05-17 20:06:00,
2013-05-17 15:07:00,80.2,46.9,29.09,NE,45,8.1,8.1,31,0.00,CLR,,0.00,WeatherDisplay:10.37,2013-05-17 20:07:00,
2013-05-17 15:08:00,79.5,46.2,29.09,NE,45,9.2,9.2,31,0.00,CLR,,0.00,WeatherDisplay:10.37,2013-05-17 20:08:00,
2013-05-17 15:10:00,79.5,46.2,29.09,ENE,68,8.1,8.1,31,0.00,CLR,,0.00,WeatherDisplay:10.37,2013-05-17 20:10:00,
2013-05-17 15:11:00,79.5,46.2,29.09,North,0,6.9,6.9,31,0.00,CLR,,0.00,WeatherDisplay:10.37,2013-05-17 20:11:00,
2013-05-17 15:13:00,79.7,47.2,29.09,ENE,68,6.0,6.0,32,0.00,CLR,,0.00,WeatherDisplay:10.37,2013-05-17 20:13:00,
2013-05-17 15:15:00,79.7,47.2,29.09,ENE,63,5.0,0.0,32,0.00,CLR,,0.00,WeatherDisplay:10.37,2013-05-17 20:15:00,
2013-05-17 15:17:00,79.7,46.4,29.09,ENE,68,6.9,6.9,31,0.00,CLR,,0.00,WeatherDisplay:10.37,2013-05-17 20:17:00,
2013-05-17 15:18:00,79.9,46.5,29.09,NNW,338,6.9,6.9,31,0.00,CLR,,0.00,WeatherDisplay:10.37,2013-05-17 20:18:00,
2013-05-17 15:19:00,79.7,46.4,29.09,ESE,112,6.9,6.9,31,0.00,CLR,,0.00,WeatherDisplay:10.37,2013-05-17 20:19:00,
2013-05-17 15:20:00,79.9,46.5,29.09,ESE,112,6.4,6.4,31,0.00,CLR,,0.00,WeatherDisplay:10.37,2013-05-17 20:20:00,
2013-05-17 15:24:00,80.1,46.7,29.09,ENE,68,4.6,4.6,31,0.00,CLR,,0.00,WeatherDisplay:10.37,2013-05-17 20:24:00,
2013-05-17 15:25:00,80.1,46.7,29.09,East,81,3.0,0.0,31,0.00,CLR,,0.00,WeatherDisplay:10.37,2013-05-17 20:25:00,
2013-05-17 15:26:00,80.2,46.9,29.09,SE,135,6.9,6.9,31,0.00,CLR,,0.00,WeatherDisplay:10.37,2013-05-17 20:26:00,
2013-05-17 15:29:00,81.1,47.6,29.09,ESE,112,4.6,4.6,31,0.00,CLR,,0.00,WeatherDisplay:10.37,2013-05-17 20:29:00,
2013-05-17 15:30:00,81.1,47.6,29.09,East,91,3.0,0.0,31,0.00,CLR,,0.00,WeatherDisplay:10.37,2013-05-17 20:30:00,
2013-05-17 15:34:00,80.4,47.0,29.09,ESE,112,8.1,8.1,31,0.00,CLR,,0.00,WeatherDisplay:10.37,2013-05-17 20:34:00,
2013-05-17 15:35:00,80.4,47.0,29.09,East,80,6.0,0.0,31,0.00,CLR,,0.00,WeatherDisplay:10.37,2013-05-17 20:35:00,
2013-05-17 15:40:00,80.2,46.0,29.09,ENE,70,5.0,0.0,30,0.00,CLR,,0.00,WeatherDisplay:10.37,2013-05-17 20:40:00,
2013-05-17 15:41:00,80.2,46.0,29.09,ESE,112,6.9,6.9,30,0.00,CLR,,0.00,WeatherDisplay:10.37,2013-05-17 20:41:00,
2013-05-17 15:42:00,80.4,47.0,29.09,ENE,68,4.7,4.7,31,0.00,CLR,,0.00,WeatherDisplay:10.37,2013-05-17 20:42:00,
2013-05-17 15:46:00,80.6,47.2,29.09,ENE,68,4.0,4.0,31,0.00,CLR,,0.00,WeatherDisplay:10.37,2013-05-17 20:46:00,
2013-05-17 15:47:00,80.6,47.2,29.09,ENE,68,5.8,5.8,31,0.00,CLR,,0.00,WeatherDisplay:10.37,2013-05-17 20:47:00,
2013-05-17 15:48:00,80.4,47.0,29.09,ENE,68,5.8,5.8,31,0.00,CLR,,0.00,WeatherDisplay:10.37,2013-05-17 20:48:00,
2013-05-17 15:49:00,80.6,46.3,29.09,SE,135,4.6,4.6,30,0.00,CLR,,0.00,WeatherDisplay:10.37,2013-05-17 20:49:00,
2013-05-17 15:51:00,80.8,47.3,29.09,NNE,22,6.4,6.4,31,0.00,CLR,,0.00,WeatherDisplay:10.37,2013-05-17 20:51:00,
2013-05-17 15:53:00,80.8,46.4,29.09,NNE,22,6.9,6.9,30,0.00,CLR,,0.00,WeatherDisplay:10.37,2013-05-17 20:53:00,
2013-05-17 15:55:00,80.8,46.4,29.09,ENE,60,5.0,0.0,30,0.00,CLR,,0.00,WeatherDisplay:10.37,2013-05-17 20:55:00,
2013-05-17 15:57:00,80.8,46.4,29.09,East,90,5.8,5.8,30,0.00,CLR,,0.00,WeatherDisplay:10.37,2013-05-17 20:57:00,
2013-05-17 15:59:00,80.8,46.4,29.09,East,90,5.8,5.8,30,0.00,CLR,,0.00,WeatherDisplay:10.37,2013-05-17 20:59:00,
2013-05-17 16:00:00,81.0,47.5,29.09,ENE,63,2.0,0.0,31,0.00,CLR,,0.00,WeatherDisplay:10.37,2013-05-17 21:00:00,
2013-05-17 16:01:00,81.0,46.6,29.09,ENE,68,5.8,5.8,30,0.00,CLR,,0.00,WeatherDisplay:10.37,2013-05-17 21:01:00,
2013-05-17 16:03:00,81.3,46.9,29.09,NNE,22,5.8,5.8,30,0.00,CLR,,0.00,WeatherDisplay:10.37,2013-05-17 21:03:00,
2013-05-17 16:05:00,81.1,46.7,29.09,ENE,74,5.0,0.0,30,0.00,CLR,,0.00,WeatherDisplay:10.37,2013-05-17 21:05:00,
2013-05-17 16:06:00,81.1,46.8,29.09,ESE,112,5.8,5.8,30,0.00,CLR,,0.00,WeatherDisplay:10.37,2013-05-17 21:06:00,
2013-05-17 16:08:00,81.3,46.9,29.06,East,90,4.0,4.0,30,0.00,CLR,,0.00,WeatherDisplay:10.37,2013-05-17 21:08:00,
2013-05-17 16:11:00,81.5,47.1,29.06,ESE,112,3.3,3.3,30,0.00,CLR,,0.00,WeatherDisplay:10.37,2013-05-17 21:11:00,
2013-05-17 16:12:00,81.7,47.2,29.06,East,90,4.6,4.6,30,0.00,CLR,,0.00,WeatherDisplay:10.37,2013-05-17 21:12:00,
2013-05-17 16:14:00,81.5,47.1,29.06,ENE,68,4.6,4.6,30,0.00,CLR,,0.00,WeatherDisplay:10.37,2013-05-17 21:14:00,
2013-05-17 16:15:00,81.6,47.2,29.06,ENE,77,2.0,0.0,30,0.00,CLR,,0.00,WeatherDisplay:10.37,2013-05-17 21:15:00,
2013-05-17 16:16:00,81.5,47.1,29.06,ENE,68,3.6,3.6,30,0.00,CLR,,0.00,WeatherDisplay:10.37,2013-05-17 21:16:00,
2013-05-17 16:17:00,81.9,47.4,29.06,East,90,4.6,4.6,30,0.00,CLR,,0.00,WeatherDisplay:10.37,2013-05-17 21:17:00,
2013-05-17 16:19:00,81.5,47.1,29.06,ENE,68,3.5,3.5,30,0.00,CLR,,0.00,WeatherDisplay:10.37,2013-05-17 21:19:00,
2013-05-17 16:21:00,81.5,47.1,29.06,East,90,4.6,4.6,30,0.00,CLR,,0.00,WeatherDisplay:10.37,2013-05-17 21:21:00,
2013-05-17 16:23:00,81.3,46.9,29.06,ENE,68,4.0,4.0,30,0.00,CLR,,0.00,WeatherDisplay:10.37,2013-05-17 21:23:00,
2013-05-17 16:24:00,81.3,46.9,29.06,NE,45,3.5,3.5,30,0.00,CLR,,0.00,WeatherDisplay:10.37,2013-05-17 21:24:00,
2013-05-17 16:25:00,81.4,47.0,29.06,ENE,74,2.0,0.0,30,0.00,CLR,,0.00,WeatherDisplay:10.37,2013-05-17 21:25:00,
2013-05-17 16:26:00,81.9,47.4,29.06,ENE,68,3.8,3.8,30,0.00,CLR,,0.00,WeatherDisplay:10.37,2013-05-17 21:26:00,
2013-05-17 16:30:00,81.5,47.1,29.06,NNW,338,5.8,5.8,30,0.00,CLR,,0.00,WeatherDisplay:10.37,2013-05-17 21:30:00,
2013-05-17 16:31:00,81.5,47.1,29.06,ENE,68,6.0,6.0,30,0.00,CLR,,0.00,WeatherDisplay:10.37,2013-05-17 21:31:00,
2013-05-17 16:32:00,81.1,45.9,29.06,East,90,8.1,8.1,29,0.00,CLR,,0.00,WeatherDisplay:10.37,2013-05-17 21:32:00,
2013-05-17 16:35:00,81.1,45.8,29.06,NE,50,3.0,0.0,29,0.00,CLR,,0.00,WeatherDisplay:10.37,2013-05-17 21:35:00,
2013-05-17 16:36:00,81.1,45.9,29.03,ENE,68,5.6,5.6,29,0.00,CLR,,0.00,WeatherDisplay:10.37,2013-05-17 21:36:00,
2013-05-17 16:37:00,81.1,45.9,29.03,ENE,68,4.6,4.6,29,0.00,CLR,,0.00,WeatherDisplay:10.37,2013-05-17 21:37:00,
2013-05-17 16:38:00,80.6,46.3,29.03,East,90,6.9,6.9,30,0.00,CLR,,0.00,WeatherDisplay:10.37,2013-05-17 21:38:00,
2013-05-17 16:40:00,80.7,46.4,29.03,ENE,60,6.0,0.0,30,0.00,CLR,,0.00,WeatherDisplay:10.37,2013-05-17 21:40:00,
2013-05-17 16:41:00,80.8,46.4,29.03,ENE,68,8.1,8.1,30,0.00,CLR,,0.00,WeatherDisplay:10.37,2013-05-17 21:41:00,
2013-05-17 16:42:00,80.8,46.4,29.03,East,90,6.4,6.4,30,0.00,CLR,,0.00,WeatherDisplay:10.37,2013-05-17 21:42:00,
2013-05-17 16:43:00,80.6,45.4,29.03,NE,45,6.9,6.9,29,0.00,CLR,,0.00,WeatherDisplay:10.37,2013-05-17 21:43:00,
2013-05-17 16:45:00,80.3,46.0,29.03,ENE,62,6.0,0.0,30,0.00,CLR,,0.00,WeatherDisplay:10.37,2013-05-17 21:45:00,
2013-05-17 16:47:00,80.2,46.0,29.03,East,90,5.9,5.9,30,0.00,CLR,,0.00,WeatherDisplay:10.37,2013-05-17 21:47:00,
2013-05-17 16:48:00,80.2,46.0,29.03,NE,45,5.8,5.8,30,0.00,CLR,,0.00,WeatherDisplay:10.37,2013-05-17 21:48:00,
2013-05-17 16:50:00,80.2,46.9,29.03,ENE,63,3.0,0.0,31,0.00,CLR,,0.00,WeatherDisplay:10.37,2013-05-17 21:50:00,
2013-05-17 16:51:00,80.2,46.9,29.03,NNE,22,5.8,5.8,31,0.00,CLR,,0.00,WeatherDisplay:10.37,2013-05-17 21:51:00,
2013-05-17 16:53:00,80.2,46.0,29.06,NNE,22,5.8,5.8,30,0.00,CLR,,0.00,WeatherDisplay:10.37,2013-05-17 21:53:00,
2013-05-17 16:54:00,80.4,46.1,29.06,NE,45,3.5,3.5,30,0.00,CLR,,0.00,WeatherDisplay:10.37,2013-05-17 21:54:00,
2013-05-17 16:55:00,80.4,46.1,29.06,NE,54,2.0,0.0,30,0.00,CLR,,0.00,WeatherDisplay:10.37,2013-05-17 21:55:00,
2013-05-17 16:56:00,80.6,46.3,29.06,South,180,3.5,3.5,30,0.00,CLR,,0.00,WeatherDisplay:10.37,2013-05-17 21:56:00,
2013-05-17 16:58:00,80.6,46.3,29.06,ESE,112,3.5,3.5,30,0.00,CLR,,0.00,WeatherDisplay:10.37,2013-05-17 21:58:00,
2013-05-17 17:00:00,80.8,47.3,29.06,ENE,70,5.0,0.0,31,0.00,CLR,,0.00,WeatherDisplay:10.37,2013-05-17 22:00:00,
2013-05-17 17:02:00,80.8,46.4,29.06,SE,135,6.9,6.9,30,0.00,CLR,,0.00,WeatherDisplay:10.37,2013-05-17 22:02:00,
2013-05-17 17:03:00,80.8,46.4,29.06,SE,135,6.9,6.9,30,0.00,CLR,,0.00,WeatherDisplay:10.37,2013-05-17 22:03:00,
2013-05-17 17:04:00,80.8,46.4,29.06,ESE,112,5.8,5.8,30,0.00,CLR,,0.00,WeatherDisplay:10.37,2013-05-17 22:04:00,
2013-05-17 17:05:00,80.8,46.4,29.06,East,90,4.6,4.6,30,0.00,CLR,,0.00,WeatherDisplay:10.37,2013-05-17 22:05:00,
2013-05-17 17:06:00,80.8,46.4,29.06,ENE,68,3.5,3.5,30,0.00,CLR,,0.00,WeatherDisplay:10.37,2013-05-17 22:06:00,
2013-05-17 17:08:00,80.6,46.3,29.06,East,90,2.3,2.3,30,0.00,CLR,,0.00,WeatherDisplay:10.37,2013-05-17 22:08:00,
2013-05-17 17:09:00,80.6,46.3,29.06,NE,45,3.5,3.5,30,0.00,CLR,,0.00,WeatherDisplay:10.37,2013-05-17 22:09:00,
2013-05-17 17:10:00,80.5,46.2,29.06,East,96,2.0,0.0,30,0.00,CLR,,0.00,WeatherDisplay:10.37,2013-05-17 22:10:00,
2013-05-17 17:12:00,80.2,46.0,29.06,ESE,112,3.5,3.5,30,0.00,CLR,,0.00,WeatherDisplay:10.37,2013-05-17 22:12:00,
2013-05-17 17:13:00,80.2,46.0,29.06,ESE,112,3.5,3.5,30,0.00,CLR,,0.00,WeatherDisplay:10.37,2013-05-17 22:13:00,
2013-05-17 17:14:00,80.2,46.0,29.06,SSW,202,4.6,4.6,30,0.00,CLR,,0.00,WeatherDisplay:10.37,2013-05-17 22:14:00,
2013-05-17 17:15:00,80.2,46.0,29.06,ESE,108,2.0,0.0,30,0.00,CLR,,0.00,WeatherDisplay:10.37,2013-05-17 22:15:00,
2013-05-17 17:19:00,80.1,45.8,29.06,SSE,158,5.6,5.6,30,0.00,CLR,,0.00,WeatherDisplay:10.37,2013-05-17 22:19:00,
2013-05-17 17:20:00,80.1,45.8,29.06,ESE,107,2.0,0.0,30,0.00,CLR,,0.00,WeatherDisplay:10.37,2013-05-17 22:20:00,
2013-05-17 17:21:00,80.1,45.8,29.06,SSE,158,3.5,3.5,30,0.00,CLR,,0.00,WeatherDisplay:10.37,2013-05-17 22:21:00,
2013-05-17 17:23:00,80.1,45.8,29.06,ESE,112,3.5,3.5,30,0.00,CLR,,0.00,WeatherDisplay:10.37,2013-05-17 22:23:00,
2013-05-17 17:25:00,80.1,45.8,29.06,SSE,158,5.8,5.8,30,0.00,CLR,,0.00,WeatherDisplay:10.37,2013-05-17 22:25:00,
2013-05-17 17:26:00,80.1,45.8,29.06,ESE,112,5.8,5.8,30,0.00,CLR,,0.00,WeatherDisplay:10.37,2013-05-17 22:26:00,
2013-05-17 17:27:00,80.1,45.8,29.06,NNE,22,4.9,4.9,30,0.00,CLR,,0.00,WeatherDisplay:10.37,2013-05-17 22:27:00,
2013-05-17 17:29:00,80.1,44.9,29.06,ENE,68,5.8,5.8,29,0.00,CLR,,0.00,WeatherDisplay:10.37,2013-05-17 22:29:00,
2013-05-17 17:32:00,80.2,43.2,29.06,South,180,4.6,4.6,27,0.00,CLR,,0.00,WeatherDisplay:10.37,2013-05-17 22:32:00,
2013-05-17 17:34:00,80.4,43.4,29.06,SSW,202,4.9,4.9,27,0.00,CLR,,0.00,WeatherDisplay:10.37,2013-05-17 22:34:00,
2013-05-17 17:35:00,80.6,43.5,29.06,ESE,112,4.6,4.6,27,0.00,CLR,,0.00,WeatherDisplay:10.37,2013-05-17 22:35:00,
2013-05-17 17:38:00,80.6,41.5,29.06,SE,135,5.8,5.8,25,0.00,CLR,,0.00,WeatherDisplay:10.37,2013-05-17 22:38:00,
2013-05-17 17:39:00,80.8,41.7,29.06,SE,135,5.8,5.8,25,0.00,CLR,,0.00,WeatherDisplay:10.37,2013-05-17 22:39:00,
2013-05-17 17:40:00,80.8,41.7,29.06,South,180,4.6,4.6,25,0.00,CLR,,0.00,WeatherDisplay:10.37,2013-05-17 22:40:00,
2013-05-17 17:41:00,80.8,41.7,29.06,ESE,112,5.8,5.8,25,0.00,CLR,,0.00,WeatherDisplay:10.37,2013-05-17 22:41:00,
2013-05-17 17:44:00,80.8,40.6,29.06,ESE,112,9.2,9.2,24,0.00,CLR,,0.00,WeatherDisplay:10.37,2013-05-17 22:44:00,
2013-05-17 17:46:00,80.8,39.5,29.06,SE,135,4.6,4.6,23,0.00,CLR,,0.00,WeatherDisplay:10.37,2013-05-17 22:46:00,
2013-05-17 17:47:00,80.8,39.5,29.06,ESE,112,5.6,5.6,23,0.00,CLR,,0.00,WeatherDisplay:10.37,2013-05-17 22:47:00,
2013-05-17 17:48:00,81.0,40.8,29.06,South,180,6.7,6.7,24,0.00,CLR,,0.00,WeatherDisplay:10.37,2013-05-17 22:48:00,
2013-05-17 17:49:00,81.0,41.8,29.06,SE,135,6.9,6.9,25,0.00,CLR,,0.00,WeatherDisplay:10.37,2013-05-17 22:49:00,
2013-05-17 17:52:00,81.0,39.7,29.09,ESE,112,5.9,5.9,23,0.00,CLR,,0.00,WeatherDisplay:10.37,2013-05-17 22:52:00,
2013-05-17 17:54:00,81.0,38.5,29.09,SE,135,5.4,5.4,22,0.00,CLR,,0.00,WeatherDisplay:10.37,2013-05-17 22:54:00,
2013-05-17 17:55:00,81.0,38.5,29.09,SSE,158,7.8,7.8,22,0.00,CLR,,0.00,WeatherDisplay:10.37,2013-05-17 22:55:00,
2013-05-17 17:57:00,81.0,38.5,29.09,ESE,112,4.7,4.7,22,0.00,CLR,,0.00,WeatherDisplay:10.37,2013-05-17 22:57:00,
2013-05-17 18:00:00,81.0,38.5,29.09,SE,135,6.9,6.9,22,0.00,CLR,,0.00,WeatherDisplay:10.37,2013-05-17 23:00:00,
2013-05-17 18:01:00,81.0,37.3,29.09,SE,135,4.6,4.6,21,0.00,CLR,,0.00,WeatherDisplay:10.37,2013-05-17 23:01:00,
2013-05-17 18:02:00,81.0,37.3,29.09,SSE,158,6.2,6.2,21,0.00,CLR,,0.00,WeatherDisplay:10.37,2013-05-17 23:02:00,
2013-05-17 18:05:00,81.1,37.5,29.09,SE,135,7.1,7.1,21,0.00,CLR,,0.00,WeatherDisplay:10.37,2013-05-17 23:05:00,
2013-05-17 18:07:00,81.3,37.6,29.03,ESE,112,6.9,6.9,21,0.00,CLR,,0.00,WeatherDisplay:10.37,2013-05-17 23:07:00,
2013-05-17 18:10:00,81.3,37.6,29.03,SSE,158,6.0,6.0,21,0.00,CLR,,0.00,WeatherDisplay:10.37,2013-05-17 23:10:00,
2013-05-17 18:12:00,81.5,37.8,29.03,SSE,158,6.0,6.0,21,0.00,CLR,,0.00,WeatherDisplay:10.37,2013-05-17 23:12:00,
2013-05-17 18:14:00,81.3,37.6,29.03,East,90,5.8,6.0,21,0.00,CLR,,0.00,WeatherDisplay:10.37,2013-05-17 23:14:00,
2013-05-17 18:15:00,81.4,37.7,29.03,SE,135,6.0,0.0,21,0.00,CLR,,0.00,WeatherDisplay:10.37,2013-05-17 23:15:00,
2013-05-17 18:17:00,81.3,37.6,29.03,ENE,68,5.8,5.8,21,0.00,CLR,,0.00,WeatherDisplay:10.37,2013-05-17 23:17:00,
2013-05-17 18:19:00,81.0,37.3,29.03,ESE,112,3.5,3.5,21,0.00,CLR,,0.00,WeatherDisplay:10.37,2013-05-17 23:19:00,
2013-05-17 18:20:00,81.0,37.3,29.03,ESE,122,3.0,0.0,21,0.00,CLR,,0.00,WeatherDisplay:10.37,2013-05-17 23:20:00,
2013-05-17 18:21:00,81.0,37.3,29.03,SE,135,5.8,5.8,21,0.00,CLR,,0.00,WeatherDisplay:10.37,2013-05-17 23:21:00,
2013-05-17 18:22:00,81.0,37.3,29.03,SSE,158,5.8,5.8,21,0.00,CLR,,0.00,WeatherDisplay:10.37,2013-05-17 23:22:00,
2013-05-17 18:25:00,80.8,36.0,29.03,SSE,158,6.9,6.9,20,0.00,CLR,,0.00,WeatherDisplay:10.37,2013-05-17 23:25:00,
2013-05-17 18:26:00,80.8,36.0,29.03,ESE,112,9.2,9.2,20,0.00,CLR,,0.00,WeatherDisplay:10.37,2013-05-17 23:26:00,
2013-05-17 18:29:00,80.4,36.9,29.03,ESE,112,4.6,4.6,21,0.00,CLR,,0.00,WeatherDisplay:10.37,2013-05-17 23:29:00,
2013-05-17 18:31:00,80.4,36.9,29.03,ESE,112,3.5,3.5,21,0.00,CLR,,0.00,WeatherDisplay:10.37,2013-05-17 23:31:00,
2013-05-17 18:32:00,80.4,36.9,29.03,SE,135,3.5,3.5,21,0.00,CLR,,0.00,WeatherDisplay:10.37,2013-05-17 23:32:00,
2013-05-17 18:33:00,80.4,36.9,29.03,SSE,158,5.6,5.6,21,0.00,CLR,,0.00,WeatherDisplay:10.37,2013-05-17 23:33:00,
2013-05-17 18:34:00,80.4,36.9,29.03,SSE,158,6.9,6.9,21,0.00,CLR,,0.00,WeatherDisplay:10.37,2013-05-17 23:34:00,
2013-05-17 18:37:00,80.1,36.6,29.06,ESE,112,6.9,6.9,21,0.00,CLR,,0.00,WeatherDisplay:10.37,2013-05-17 23:37:00,
2013-05-17 18:38:00,79.9,36.4,29.06,SE,135,4.6,4.6,21,0.00,CLR,,0.00,WeatherDisplay:10.37,2013-05-17 23:38:00,
2013-05-17 18:39:00,79.9,36.4,29.06,NE,45,3.5,3.5,21,0.00,CLR,,0.00,WeatherDisplay:10.37,2013-05-17 23:39:00,
2013-05-17 18:41:00,79.5,36.1,29.06,East,90,3.5,3.5,21,0.00,CLR,,0.00,WeatherDisplay:10.37,2013-05-17 23:41:00,
2013-05-17 18:43:00,79.3,36.0,29.06,East,90,2.3,2.3,21,0.00,CLR,,0.00,WeatherDisplay:10.37,2013-05-17 23:43:00,
2013-05-17 18:44:00,79.3,36.0,29.06,East,90,2.3,2.3,21,0.00,CLR,,0.00,WeatherDisplay:10.37,2013-05-17 23:44:00,
2013-05-17 18:45:00,79.2,37.0,29.06,East,97,2.0,0.0,22,0.00,CLR,,0.00,WeatherDisplay:10.37,2013-05-17 23:45:00,
2013-05-17 18:48:00,78.8,36.7,29.06,NE,45,1.1,1.4,22,0.00,CLR,,0.00,WeatherDisplay:10.37,2013-05-17 23:48:00,
2013-05-17 18:49:00,78.8,37.9,29.06,ENE,68,2.4,2.4,23,0.00,CLR,,0.00,WeatherDisplay:10.37,2013-05-17 23:49:00,
2013-05-17 18:52:00,78.6,36.6,29.03,SE,135,2.3,0.0,22,0.00,CLR,,0.00,WeatherDisplay:10.37,2013-05-17 23:52:00,
2013-05-17 18:53:00,78.6,36.6,29.03,ESE,112,0.9,0.0,22,0.00,CLR,,0.00,WeatherDisplay:10.37,2013-05-17 23:53:00,
2013-05-17 18:54:00,78.6,36.6,29.03,ENE,68,3.5,3.5,22,0.00,CLR,,0.00,WeatherDisplay:10.37,2013-05-17 23:54:00,
2013-05-17 18:55:00,78.6,36.6,29.03,ESE,112,3.5,3.5,22,0.00,CLR,,0.00,WeatherDisplay:10.37,2013-05-17 23:55:00,
2013-05-17 18:57:00,78.3,37.4,29.03,East,90,4.6,4.6,23,0.00,CLR,,0.00,WeatherDisplay:10.37,2013-05-17 23:57:00,
2013-05-17 18:58:00,78.3,37.4,29.03,SE,135,5.6,5.6,23,0.00,CLR,,0.00,WeatherDisplay:10.37,2013-05-17 23:58:00,
2013-05-17 19:00:00,78.3,37.4,29.03,NE,45,5.8,5.8,23,0.00,CLR,,0.00,WeatherDisplay:10.37,2013-05-18 00:00:00,
2013-05-17 19:01:00,78.1,38.3,29.03,NE,45,2.3,2.3,24,0.00,CLR,,0.00,WeatherDisplay:10.37,2013-05-18 00:01:00,
2013-05-17 19:02:00,78.1,38.3,29.03,NE,45,1.1,0.0,24,0.00,CLR,,0.00,WeatherDisplay:10.37,2013-05-18 00:02:00,
2013-05-17 19:03:00,78.1,38.3,29.03,NE,45,0.0,0.0,24,0.00,CLR,,0.00,WeatherDisplay:10.37,2013-05-18 00:03:00,
2013-05-17 19:05:00,77.9,39.2,29.03,NE,45,2.3,2.3,25,0.00,CLR,,0.00,WeatherDisplay:10.37,2013-05-18 00:05:00,
2013-05-17 19:07:00,77.9,39.2,29.03,ENE,68,1.1,0.0,25,0.00,CLR,,0.00,WeatherDisplay:10.37,2013-05-18 00:07:00,
2013-05-17 19:08:00,77.7,39.1,29.03,SE,135,3.8,0.0,25,0.00,CLR,,0.00,WeatherDisplay:10.37,2013-05-18 00:08:00,
2013-05-17 19:09:00,77.7,39.1,29.03,East,90,2.6,2.9,25,0.00,CLR,,0.00,WeatherDisplay:10.37,2013-05-18 00:09:00,
2013-05-17 19:10:00,77.7,39.1,29.03,SSE,158,4.0,4.0,25,0.00,CLR,,0.00,WeatherDisplay:10.37,2013-05-18 00:10:00,
2013-05-17 19:11:00,77.7,40.1,29.03,ENE,68,4.6,4.6,26,0.00,CLR,,0.00,WeatherDisplay:10.37,2013-05-18 00:11:00,
2013-05-17 19:13:00,77.5,38.9,29.03,East,90,3.3,0.0,25,0.00,CLR,,0.00,WeatherDisplay:10.37,2013-05-18 00:13:00,
2013-05-17 19:14:00,77.5,39.9,29.03,East,90,3.5,3.5,26,0.00,CLR,,0.00,WeatherDisplay:10.37,2013-05-18 00:14:00,
2013-05-17 19:15:00,77.5,39.9,29.03,ENE,68,2.3,0.0,26,0.00,CLR,,0.00,WeatherDisplay:10.37,2013-05-18 00:15:00,
2013-05-17 19:16:00,77.5,39.9,29.03,East,90,2.3,2.3,26,0.00,CLR,,0.00,WeatherDisplay:10.37,2013-05-18 00:16:00,
2013-05-17 19:18:00,77.5,39.9,29.03,ESE,112,3.8,0.0,26,0.00,CLR,,0.00,WeatherDisplay:10.37,2013-05-18 00:18:00,
2013-05-17 19:19:00,77.5,39.9,29.03,East,90,3.5,0.0,26,0.00,CLR,,0.00,WeatherDisplay:10.37,2013-05-18 00:19:00,
2013-05-17 19:20:00,77.5,39.9,29.03,East,90,0.0,0.0,26,0.00,CLR,,0.00,WeatherDisplay:10.37,2013-05-18 00:20:00,
2013-05-17 19:21:00,77.5,39.9,29.06,East,90,0.0,0.0,26,0.00,CLR,,0.00,WeatherDisplay:10.37,2013-05-18 00:21:00,
2013-05-17 19:25:00,77.5,39.9,29.06,East,90,0.0,0.0,26,0.00,CLR,,0.00,WeatherDisplay:10.37,2013-05-18 00:25:00,
2013-05-17 19:26:00,77.5,39.9,29.06,East,90,0.0,0.0,26,0.00,CLR,,0.00,WeatherDisplay:10.37,2013-05-18 00:26:00,
2013-05-17 19:27:00,77.4,39.8,29.06,ENE,68,2.0,0.0,26,0.00,CLR,,0.00,WeatherDisplay:10.37,2013-05-18 00:27:00,
2013-05-17 19:30:00,77.4,39.8,29.06,East,96,0.0,0.0,26,0.00,CLR,,0.00,WeatherDisplay:10.37,2013-05-18 00:30:00,
2013-05-17 19:32:00,77.4,40.8,29.06,ESE,112,0.0,0.0,27,0.00,CLR,,0.00,WeatherDisplay:10.37,2013-05-18 00:32:00,
2013-05-17 19:33:00,77.4,40.8,29.06,ESE,112,0.0,0.0,27,0.00,CLR,,0.00,WeatherDisplay:10.37,2013-05-18 00:33:00,
2013-05-17 19:34:00,77.4,40.8,29.06,ESE,112,0.0,0.0,27,0.00,CLR,,0.00,WeatherDisplay:10.37,2013-05-18 00:34:00,
2013-05-17 19:35:00,77.2,40.6,29.06,South,180,0.0,0.0,27,0.00,CLR,,0.00,WeatherDisplay:10.37,2013-05-18 00:35:00,
2013-05-17 19:38:00,77.0,41.4,29.09,ESE,112,1.1,0.0,28,0.00,CLR,,0.00,WeatherDisplay:10.37,2013-05-18 00:38:00,
2013-05-17 19:39:00,77.0,41.4,29.09,ENE,68,1.1,0.0,28,0.00,CLR,,0.00,WeatherDisplay:10.37,2013-05-18 00:39:00,
2013-05-17 19:40:00,77.0,41.4,29.09,ESE,112,2.0,2.0,28,0.00,CLR,,0.00,WeatherDisplay:10.37,2013-05-18 00:40:00,
2013-05-17 19:43:00,77.0,41.4,29.09,East,90,2.3,2.3,28,0.00,CLR,,0.00,WeatherDisplay:10.37,2013-05-18 00:43:00,
2013-05-17 19:44:00,77.0,41.4,29.09,East,90,2.9,2.9,28,0.00,CLR,,0.00,WeatherDisplay:10.37,2013-05-18 00:44:00,
2013-05-17 19:45:00,77.0,41.4,29.09,SE,135,2.3,2.3,28,0.00,CLR,,0.00,WeatherDisplay:10.37,2013-05-18 00:45:00,
2013-05-17 19:46:00,76.5,40.9,29.09,East,90,4.6,4.6,28,0.00,CLR,,0.00,WeatherDisplay:10.37,2013-05-18 00:46:00,
2013-05-17 19:49:00,76.5,40.0,29.09,SE,135,2.3,2.3,27,0.00,CLR,,0.00,WeatherDisplay:10.37,2013-05-18 00:49:00,
2013-05-17 19:50:00,76.4,39.9,29.09,ESE,107,1.0,0.0,27,0.00,CLR,,0.00,WeatherDisplay:10.37,2013-05-18 00:50:00,
2013-05-17 19:51:00,76.3,39.8,29.09,SE,135,1.1,0.0,27,0.00,CLR,,0.00,WeatherDisplay:10.37,2013-05-18 00:51:00,
2013-05-17 19:53:00,76.3,39.8,29.06,SE,135,0.0,0.0,27,0.00,CLR,,0.00,WeatherDisplay:10.37,2013-05-18 00:53:00,
2013-05-17 19:54:00,76.3,39.8,29.06,ESE,112,2.3,0.0,27,0.00,CLR,,0.00,WeatherDisplay:10.37,2013-05-18 00:54:00,
2013-05-17 19:55:00,76.3,39.8,29.06,ESE,112,2.3,2.3,27,0.00,CLR,,0.00,WeatherDisplay:10.37,2013-05-18 00:55:00,
2013-05-17 19:58:00,76.3,39.8,29.06,ESE,112,0.0,0.0,27,0.00,CLR,,0.00,WeatherDisplay:10.37,2013-05-18 00:58:00,
2013-05-17 19:59:00,76.3,39.8,29.06,ESE,112,0.0,0.0,27,0.00,CLR,,0.00,WeatherDisplay:10.37,2013-05-18 00:59:00,
2013-05-17 20:00:00,76.3,39.8,29.06,ESE,112,0.0,0.0,27,0.00,CLR,,0.00,WeatherDisplay:10.37,2013-05-18 01:00:00,
2013-05-17 20:01:00,76.3,39.8,29.06,East,90,2.0,0.0,27,0.00,CLR,,0.00,WeatherDisplay:10.37,2013-05-18 01:01:00,
2013-05-17 20:02:00,76.3,39.8,29.06,East,90,2.3,2.3,27,0.00,CLR,,0.00,WeatherDisplay:10.37,2013-05-18 01:02:00,
2013-05-17 20:04:00,75.4,40.9,29.06,East,90,0.0,0.0,29,0.00,CLR,,0.00,WeatherDisplay:10.37,2013-05-18 01:04:00,
2013-05-17 20:05:00,75.4,40.9,29.06,East,99,0.0,0.0,29,0.00,CLR,,0.00,WeatherDisplay:10.37,2013-05-18 01:05:00,
2013-05-17 20:08:00,75.4,40.9,29.09,ESE,112,0.0,0.0,29,0.00,CLR,,0.00,WeatherDisplay:10.37,2013-05-18 01:08:00,
2013-05-17 20:09:00,75.4,40.9,29.09,ESE,112,0.0,0.0,29,0.00,CLR,,0.00,WeatherDisplay:10.37,2013-05-18 01:09:00,
2013-05-17 20:10:00,75.4,40.9,29.09,ENE,68,0.0,0.0,29,0.00,CLR,,0.00,WeatherDisplay:10.37,2013-05-18 01:10:00,
2013-05-17 20:14:00,75.0,40.6,29.09,ENE,68,2.0,0.0,29,0.00,CLR,,0.00,WeatherDisplay:10.37,2013-05-18 01:14:00,
2013-05-17 20:15:00,75.0,41.5,29.09,East,90,2.3,0.0,30,0.00,CLR,,0.00,WeatherDisplay:10.37,2013-05-18 01:15:00,
2013-05-17 20:16:00,75.0,41.5,29.09,East,90,2.3,0.0,30,0.00,CLR,,0.00,WeatherDisplay:10.37,2013-05-18 01:16:00,
2013-05-17 20:19:00,74.8,41.3,29.09,East,90,0.0,0.0,30,0.00,CLR,,0.00,WeatherDisplay:10.37,2013-05-18 01:19:00,
2013-05-17 20:20:00,74.7,41.2,29.09,East,90,0.0,0.0,30,0.00,CLR,,0.00,WeatherDisplay:10.37,2013-05-18 01:20:00,
2013-05-17 20:21:00,74.7,42.0,29.06,East,90,0.0,0.0,31,0.00,CLR,,0.00,WeatherDisplay:10.37,2013-05-18 01:21:00,
2013-05-17 20:22:00,74.7,42.0,29.06,East,90,0.0,0.0,31,0.00,CLR,,0.00,WeatherDisplay:10.37,2013-05-18 01:22:00,
2013-05-17 20:25:00,74.7,42.0,29.06,East,90,0.0,0.0,31,0.00,CLR,,0.00,WeatherDisplay:10.37,2013-05-18 01:25:00,
2013-05-17 20:27:00,74.3,41.7,29.06,East,90,1.1,0.0,31,0.00,CLR,,0.00,WeatherDisplay:10.37,2013-05-18 01:27:00,
2013-05-17 20:28:00,74.3,41.7,29.06,ENE,68,1.1,0.0,31,0.00,CLR,,0.00,WeatherDisplay:10.37,2013-05-18 01:28:00,
2013-05-17 20:29:00,74.3,41.7,29.06,ENE,68,1.1,0.0,31,0.00,CLR,,0.00,WeatherDisplay:10.37,2013-05-18 01:29:00,
2013-05-17 20:30:00,74.2,41.6,29.06,East,87,0.0,0.0,31,0.00,CLR,,0.00,WeatherDisplay:10.37,2013-05-18 01:30:00,
2013-05-17 20:33:00,73.9,41.4,29.06,NE,45,1.1,1.4,31,0.00,CLR,,0.00,WeatherDisplay:10.37,2013-05-18 01:33:00,
2013-05-17 20:34:00,73.9,41.4,29.06,NE,45,2.0,2.0,31,0.00,CLR,,0.00,WeatherDisplay:10.37,2013-05-18 01:34:00,
2013-05-17 20:35:00,73.9,41.4,29.06,ENE,65,2.0,0.0,31,0.00,CLR,,0.00,WeatherDisplay:10.37,2013-05-18 01:35:00,
2013-05-17 20:37:00,73.8,41.2,29.09,ENE,68,5.4,5.4,31,0.00,CLR,,0.00,WeatherDisplay:10.37,2013-05-18 01:37:00,
2013-05-17 20:40:00,73.4,43.3,29.09,East,90,6.9,6.9,34,0.00,CLR,,0.00,WeatherDisplay:10.37,2013-05-18 01:40:00,
2013-05-17 20:41:00,73.4,44.8,29.09,ENE,68,5.8,5.8,36,0.00,CLR,,0.00,WeatherDisplay:10.37,2013-05-18 01:41:00,
2013-05-17 20:42:00,73.4,44.8,29.09,East,90,8.1,8.1,36,0.00,CLR,,0.00,WeatherDisplay:10.37,2013-05-18 01:42:00,
2013-05-17 20:43:00,73.0,47.9,29.09,NE,45,8.1,8.1,41,0.00,CLR,,0.00,WeatherDisplay:10.37,2013-05-18 01:43:00,
2013-05-17 20:45:00,73.0,47.9,29.09,ESE,112,6.2,6.2,41,0.00,CLR,,0.00,WeatherDisplay:10.37,2013-05-18 01:45:00,
2013-05-17 20:48:00,72.9,47.8,29.09,NNE,22,5.8,5.8,41,0.00,CLR,,0.00,WeatherDisplay:10.37,2013-05-18 01:48:00,
2013-05-17 20:50:00,72.7,48.3,29.09,ENE,71,3.0,0.0,42,0.00,CLR,,0.00,WeatherDisplay:10.37,2013-05-18 01:50:00,
2013-05-17 20:51:00,72.5,48.7,29.09,ESE,112,8.1,8.1,43,0.00,CLR,,0.00,WeatherDisplay:10.37,2013-05-18 01:51:00,
2013-05-17 20:52:00,72.5,48.1,29.09,ESE,112,8.1,8.1,42,0.00,CLR,,0.00,WeatherDisplay:10.37,2013-05-18 01:52:00,
2013-05-17 20:53:00,72.3,49.8,29.09,ESE,112,6.9,6.9,45,0.00,CLR,,0.00,WeatherDisplay:10.37,2013-05-18 01:53:00,
2013-05-17 20:56:00,72.3,49.2,29.09,South,180,5.6,5.6,44,0.00,CLR,,0.00,WeatherDisplay:10.37,2013-05-18 01:56:00,
2013-05-17 20:58:00,72.3,49.2,29.09,East,90,9.2,9.2,44,0.00,CLR,,0.00,WeatherDisplay:10.37,2013-05-18 01:58:00,
2013-05-17 20:59:00,72.3,49.2,29.09,ESE,112,6.9,6.9,44,0.00,CLR,,0.00,WeatherDisplay:10.37,2013-05-18 01:59:00,
2013-05-17 21:03:00,72.0,51.2,29.09,ESE,112,8.1,8.1,48,0.00,CLR,,0.00,WeatherDisplay:10.37,2013-05-18 02:03:00,
2013-05-17 21:04:00,72.0,51.2,29.09,ENE,68,8.1,8.1,48,0.00,CLR,,0.00,WeatherDisplay:10.37,2013-05-18 02:04:00,
2013-05-17 21:05:00,72.0,51.2,29.09,East,85,6.0,0.0,48,0.00,CLR,,0.00,WeatherDisplay:10.37,2013-05-18 02:05:00,
2013-05-17 21:06:00,72.0,51.2,29.09,ESE,112,5.8,5.8,48,0.00,CLR,,0.00,WeatherDisplay:10.37,2013-05-18 02:06:00,
2013-05-17 21:10:00,72.0,51.2,29.09,East,85,5.0,0.0,48,0.00,CLR,,0.00,WeatherDisplay:10.37,2013-05-18 02:10:00,
2013-05-17 21:12:00,71.8,50.5,29.09,ENE,68,8.1,8.1,47,0.00,CLR,,0.00,WeatherDisplay:10.37,2013-05-18 02:12:00,
2013-05-17 21:14:00,71.6,50.3,29.09,East,90,4.6,4.6,47,0.00,CLR,,0.00,WeatherDisplay:10.37,2013-05-18 02:14:00,
2013-05-17 21:15:00,71.6,50.3,29.09,East,98,3.0,0.0,47,0.00,CLR,,0.00,WeatherDisplay:10.37,2013-05-18 02:15:00,
2013-05-17 21:16:00,71.6,50.9,29.09,SE,135,10.4,10.4,48,0.00,CLR,,0.00,WeatherDisplay:10.37,2013-05-18 02:16:00,
2013-05-17 21:17:00,71.6,50.9,29.09,ENE,68,9.2,9.2,48,0.00,CLR,,0.00,WeatherDisplay:10.37,2013-05-18 02:17:00,
2013-05-17 21:20:00,71.4,51.3,29.09,East,92,6.0,0.0,49,0.00,CLR,,0.00,WeatherDisplay:10.37,2013-05-18 02:20:00,
2013-05-17 21:22:00,71.4,50.7,29.09,NNE,22,4.6,4.6,48,0.00,CLR,,0.00,WeatherDisplay:10.37,2013-05-18 02:22:00,
2013-05-17 21:25:00,71.4,50.7,29.09,ENE,68,4.6,4.6,48,0.00,CLR,,0.00,WeatherDisplay:10.37,2013-05-18 02:25:00,
2013-05-17 21:27:00,71.2,51.1,29.09,SE,135,9.2,9.2,49,0.00,CLR,,0.00,WeatherDisplay:10.37,2013-05-18 02:27:00,
2013-05-17 21:30:00,71.1,50.9,29.09,ENE,68,5.8,5.8,49,0.00,CLR,,0.00,WeatherDisplay:10.37,2013-05-18 02:30:00,
2013-05-17 21:31:00,71.1,50.9,29.09,ENE,68,4.6,4.6,49,0.00,CLR,,0.00,WeatherDisplay:10.37,2013-05-18 02:31:00,
2013-05-17 21:32:00,71.1,50.9,29.09,East,90,5.9,5.9,49,0.00,CLR,,0.00,WeatherDisplay:10.37,2013-05-18 02:32:00,
2013-05-17 21:34:00,71.1,50.9,29.09,NNW,338,5.8,5.8,49,0.00,CLR,,0.00,WeatherDisplay:10.37,2013-05-18 02:34:00,
2013-05-17 21:35:00,70.9,50.8,29.09,ESE,112,4.9,4.9,49,0.00,CLR,,0.00,WeatherDisplay:10.37,2013-05-18 02:35:00,
2013-05-17 21:36:00,70.9,50.2,29.09,ENE,68,6.7,6.7,48,0.00,CLR,,0.00,WeatherDisplay:10.37,2013-05-18 02:36:00,
2013-05-17 21:39:00,70.9,50.8,29.09,NE,45,8.1,8.1,49,0.00,CLR,,0.00,WeatherDisplay:10.37,2013-05-18 02:39:00,
2013-05-17 21:40:00,70.7,51.2,29.09,ENE,71,5.0,0.0,50,0.00,CLR,,0.00,WeatherDisplay:10.37,2013-05-18 02:40:00,
2013-05-17 21:41:00,70.7,50.6,29.09,East,90,7.4,7.4,49,0.00,CLR,,0.00,WeatherDisplay:10.37,2013-05-18 02:41:00,
2013-05-17 21:42:00,70.7,50.6,29.09,East,90,6.9,6.9,49,0.00,CLR,,0.00,WeatherDisplay:10.37,2013-05-18 02:42:00,
2013-05-17 21:44:00,70.5,50.4,29.09,East,90,5.8,5.8,49,0.00,CLR,,0.00,WeatherDisplay:10.37,2013-05-18 02:44:00,
2013-05-17 21:46:00,70.5,50.4,29.09,ESE,112,3.5,3.5,49,0.00,CLR,,0.00,WeatherDisplay:10.37,2013-05-18 02:46:00,
2013-05-17 21:47:00,70.5,50.4,29.09,East,90,5.8,5.8,49,0.00,CLR,,0.00,WeatherDisplay:10.37,2013-05-18 02:47:00,
2013-05-17 21:49:00,70.5,50.4,29.09,ESE,112,3.5,3.5,49,0.00,CLR,,0.00,WeatherDisplay:10.37,2013-05-18 02:49:00,
2013-05-17 21:51:00,70.3,50.3,29.09,North,0,3.8,3.8,49,0.00,CLR,,0.00,WeatherDisplay:10.37,2013-05-18 02:51:00,
2013-05-17 21:52:00,70.3,50.3,29.09,East,90,5.8,5.8,49,0.00,CLR,,0.00,WeatherDisplay:10.37,2013-05-18 02:52:00,
2013-05-17 21:53:00,70.3,50.3,29.09,East,90,3.5,3.5,49,0.00,CLR,,0.00,WeatherDisplay:10.37,2013-05-18 02:53:00,
2013-05-17 21:55:00,70.2,50.6,29.09,ESE,112,5.9,5.9,50,0.00,CLR,,0.00,WeatherDisplay:10.37,2013-05-18 02:55:00,
2013-05-17 21:57:00,70.2,51.2,29.09,ENE,68,4.6,4.6,51,0.00,CLR,,0.00,WeatherDisplay:10.37,2013-05-18 02:57:00,
2013-05-17 21:58:00,70.0,51.0,29.09,ESE,112,5.8,5.8,51,0.00,CLR,,0.00,WeatherDisplay:10.37,2013-05-18 02:58:00,
2013-05-17 21:59:00,70.0,50.5,29.09,East,90,4.6,4.6,50,0.00,CLR,,0.00,WeatherDisplay:10.37,2013-05-18 02:59:00,
2013-05-17 22:02:00,69.8,50.9,29.09,East,90,4.6,4.6,51,0.00,CLR,,0.00,WeatherDisplay:10.37,2013-05-18 03:02:00,
2013-05-17 22:03:00,69.8,50.3,29.09,ENE,68,3.6,3.6,50,0.00,CLR,,0.00,WeatherDisplay:10.37,2013-05-18 03:03:00,
2013-05-17 22:05:00,69.7,51.3,29.09,East,84,2.0,0.0,52,0.00,CLR,,0.00,WeatherDisplay:10.37,2013-05-18 03:05:00,
2013-05-17 22:07:00,69.6,51.2,29.09,NNE,22,5.8,5.8,52,0.00,CLR,,0.00,WeatherDisplay:10.37,2013-05-18 03:07:00,
2013-05-17 22:09:00,69.6,51.2,29.09,NE,45,4.6,4.6,52,0.00,CLR,,0.00,WeatherDisplay:10.37,2013-05-18 03:09:00,
2013-05-17 22:10:00,69.5,51.1,29.09,East,85,3.0,0.0,52,0.00,CLR,,0.00,WeatherDisplay:10.37,2013-05-18 03:10:00,
2013-05-17 22:11:00,69.4,51.6,29.09,ENE,68,3.5,3.5,53,0.00,CLR,,0.00,WeatherDisplay:10.37,2013-05-18 03:11:00,
2013-05-17 22:13:00,69.4,51.6,29.09,NNE,22,3.5,3.5,53,0.00,CLR,,0.00,WeatherDisplay:10.37,2013-05-18 03:13:00,
2013-05-17 22:14:00,69.4,51.6,29.09,East,90,2.3,2.3,53,0.00,CLR,,0.00,WeatherDisplay:10.37,2013-05-18 03:14:00,
2013-05-17 22:15:00,69.3,51.4,29.09,East,90,5.8,5.8,53,0.00,CLR,,0.00,WeatherDisplay:10.37,2013-05-18 03:15:00,
2013-05-17 22:18:00,69.3,51.4,29.09,NE,45,3.5,3.5,53,0.00,CLR,,0.00,WeatherDisplay:10.37,2013-05-18 03:18:00,
2013-05-17 22:19:00,69.3,51.9,29.09,ENE,68,3.5,3.5,54,0.00,CLR,,0.00,WeatherDisplay:10.37,2013-05-18 03:19:00,
2013-05-17 22:20:00,69.3,51.9,29.09,East,82,2.0,0.0,54,0.00,CLR,,0.00,WeatherDisplay:10.37,2013-05-18 03:20:00,
2013-05-17 22:22:00,69.3,51.9,29.09,ESE,112,3.5,3.5,54,0.00,CLR,,0.00,WeatherDisplay:10.37,2013-05-18 03:22:00,
2013-05-17 22:23:00,69.3,51.9,29.09,East,90,3.5,3.5,54,0.00,CLR,,0.00,WeatherDisplay:10.37,2013-05-18 03:23:00,
2013-05-17 22:25:00,69.1,51.7,29.09,ENE,68,3.5,3.5,54,0.00,CLR,,0.00,WeatherDisplay:10.37,2013-05-18 03:25:00,
2013-05-17 22:26:00,69.1,51.7,29.09,East,90,2.3,2.3,54,0.00,CLR,,0.00,WeatherDisplay:10.37,2013-05-18 03:26:00,
2013-05-17 22:30:00,69.1,51.7,29.09,SE,135,1.1,1.1,54,0.00,CLR,,0.00,WeatherDisplay:10.37,2013-05-18 03:30:00,
2013-05-17 22:32:00,69.1,51.7,29.09,ENE,68,2.4,2.4,54,0.00,CLR,,0.00,WeatherDisplay:10.37,2013-05-18 03:32:00,
2013-05-17 22:33:00,69.1,52.2,29.09,North,0,2.3,0.0,55,0.00,CLR,,0.00,WeatherDisplay:10.37,2013-05-18 03:33:00,
2013-05-17 22:34:00,69.1,52.2,29.09,SE,135,2.6,2.6,55,0.00,CLR,,0.00,WeatherDisplay:10.37,2013-05-18 03:34:00,
2013-05-17 22:35:00,69.1,52.7,29.09,ENE,68,2.3,2.3,56,0.00,CLR,,0.00,WeatherDisplay:10.37,2013-05-18 03:35:00,
2013-05-17 22:38:00,68.9,52.1,29.09,East,90,3.5,3.5,55,0.00,CLR,,0.00,WeatherDisplay:10.37,2013-05-18 03:38:00,
2013-05-17 22:40:00,68.9,51.6,29.09,East,90,1.1,1.1,54,0.00,CLR,,0.00,WeatherDisplay:10.37,2013-05-18 03:40:00,
2013-05-17 22:43:00,68.9,52.1,29.09,SE,135,2.4,2.4,55,0.00,CLR,,0.00,WeatherDisplay:10.37,2013-05-18 03:43:00,
2013-05-17 22:44:00,68.9,52.1,29.09,ENE,68,2.3,2.3,55,0.00,CLR,,0.00,WeatherDisplay:10.37,2013-05-18 03:44:00,
2013-05-17 22:46:00,68.9,52.6,29.09,ENE,68,3.5,3.5,56,0.00,CLR,,0.00,WeatherDisplay:10.37,2013-05-18 03:46:00,
2013-05-17 22:47:00,68.9,52.6,29.09,East,90,3.5,3.5,56,0.00,CLR,,0.00,WeatherDisplay:10.37,2013-05-18 03:47:00,
2013-05-17 22:49:00,68.9,52.6,29.09,East,90,2.3,2.4,56,0.00,CLR,,0.00,WeatherDisplay:10.37,2013-05-18 03:49:00,
2013-05-17 22:50:00,68.9,52.6,29.09,East,90,4.6,4.6,56,0.00,CLR,,0.00,WeatherDisplay:10.37,2013-05-18 03:50:00,
2013-05-17 22:51:00,68.9,53.0,29.09,East,90,2.4,2.4,57,0.00,CLR,,0.00,WeatherDisplay:10.37,2013-05-18 03:51:00,
2013-05-17 22:54:00,68.9,53.0,29.09,ENE,68,3.6,3.6,57,0.00,CLR,,0.00,WeatherDisplay:10.37,2013-05-18 03:54:00,
2013-05-17 22:56:00,68.9,53.0,29.09,SE,135,3.5,3.5,57,0.00,CLR,,0.00,WeatherDisplay:10.37,2013-05-18 03:56:00,
2013-05-17 22:58:00,68.9,54.0,29.09,East,90,5.6,5.6,59,0.00,CLR,,0.00,WeatherDisplay:10.37,2013-05-18 03:58:00,
2013-05-17 22:59:00,68.9,54.0,29.09,ESE,112,5.8,5.8,59,0.00,CLR,,0.00,WeatherDisplay:10.37,2013-05-18 03:59:00,
2013-05-17 23:01:00,68.7,52.9,29.09,East,90,4.6,4.6,57,0.00,CLR,,0.00,WeatherDisplay:10.37,2013-05-18 04:01:00,
2013-05-17 23:03:00,68.7,53.3,29.09,SE,135,6.9,6.9,58,0.00,CLR,,0.00,WeatherDisplay:10.37,2013-05-18 04:03:00,
2013-05-17 23:05:00,68.7,52.9,29.09,ESE,106,2.0,0.0,57,0.00,CLR,,0.00,WeatherDisplay:10.37,2013-05-18 04:05:00,
2013-05-17 23:06:00,68.7,52.9,29.09,South,180,3.5,3.5,57,0.00,CLR,,0.00,WeatherDisplay:10.37,2013-05-18 04:06:00,
2013-05-17 23:09:00,68.9,53.5,29.09,SSE,158,5.8,5.8,58,0.00,CLR,,0.00,WeatherDisplay:10.37,2013-05-18 04:09:00,
2013-05-17 23:10:00,68.9,53.5,29.09,SE,135,4.6,4.6,58,0.00,CLR,,0.00,WeatherDisplay:10.37,2013-05-18 04:10:00,
2013-05-17 23:12:00,68.7,53.3,29.09,ENE,68,3.8,3.8,58,0.00,CLR,,0.00,WeatherDisplay:10.37,2013-05-18 04:12:00,
2013-05-17 23:13:00,68.7,53.3,29.09,SE,135,3.5,3.5,58,0.00,CLR,,0.00,WeatherDisplay:10.37,2013-05-18 04:13:00,
2013-05-17 23:14:00,68.7,53.3,29.09,ESE,112,3.5,3.5,58,0.00,CLR,,0.00,WeatherDisplay:10.37,2013-05-18 04:14:00,
2013-05-17 23:15:00,68.7,53.3,29.09,ESE,112,4.6,4.6,58,0.00,CLR,,0.00,WeatherDisplay:10.37,2013-05-18 04:15:00,
2013-05-17 23:17:00,68.9,54.0,29.09,ENE,68,5.4,5.4,59,0.00,CLR,,0.00,WeatherDisplay:10.37,2013-05-18 04:17:00,
2013-05-17 23:20:00,68.9,54.0,29.09,ESE,106,3.0,0.0,59,0.00,CLR,,0.00,WeatherDisplay:10.37,2013-05-18 04:20:00,
2013-05-17 23:22:00,68.9,54.4,29.09,ESE,112,3.3,3.3,60,0.00,CLR,,0.00,WeatherDisplay:10.37,2013-05-18 04:22:00,
2013-05-17 23:25:00,68.9,54.0,29.09,ESE,107,2.0,0.0,59,0.00,CLR,,0.00,WeatherDisplay:10.37,2013-05-18 04:25:00,
2013-05-17 23:26:00,68.9,54.4,29.09,ESE,112,4.6,4.6,60,0.00,CLR,,0.00,WeatherDisplay:10.37,2013-05-18 04:26:00,
2013-05-17 23:27:00,68.9,54.0,29.09,ESE,112,4.6,4.6,59,0.00,CLR,,0.00,WeatherDisplay:10.37,2013-05-18 04:27:00,
2013-05-17 23:29:00,68.9,54.0,29.09,SSE,158,4.9,4.9,59,0.00,CLR,,0.00,WeatherDisplay:10.37,2013-05-18 04:29:00,
2013-05-17 23:30:00,68.9,54.4,29.09,ESE,107,3.0,0.0,60,0.00,CLR,,0.00,WeatherDisplay:10.37,2013-05-18 04:30:00,
2013-05-17 23:33:00,68.9,54.4,29.09,East,90,5.8,5.8,60,0.00,CLR,,0.00,WeatherDisplay:10.37,2013-05-18 04:33:00,
2013-05-17 23:34:00,68.9,54.9,29.09,SSE,158,3.5,3.5,61,0.00,CLR,,0.00,WeatherDisplay:10.37,2013-05-18 04:34:00,
2013-05-17 23:35:00,68.9,54.4,29.09,East,90,3.6,3.6,60,0.00,CLR,,0.00,WeatherDisplay:10.37,2013-05-18 04:35:00,
2013-05-17 23:38:00,68.9,54.4,29.09,ENE,68,5.8,5.8,60,0.00,CLR,,0.00,WeatherDisplay:10.37,2013-05-18 04:38:00,
2013-05-17 23:39:00,68.9,54.4,29.09,ESE,112,2.9,2.9,60,0.00,CLR,,0.00,WeatherDisplay:10.37,2013-05-18 04:39:00,
2013-05-17 23:43:00,68.9,54.4,29.09,ENE,68,4.6,4.6,60,0.00,CLR,,0.00,WeatherDisplay:10.37,2013-05-18 04:43:00,
2013-05-17 23:44:00,68.9,54.9,29.09,ESE,112,3.5,3.5,61,0.00,CLR,,0.00,WeatherDisplay:10.37,2013-05-18 04:44:00,
2013-05-17 23:45:00,69.0,55.0,29.09,East,90,2.0,0.0,61,0.00,CLR,,0.00,WeatherDisplay:10.37,2013-05-18 04:45:00,
2013-05-17 23:46:00,68.9,54.9,29.09,ESE,112,2.3,2.3,61,0.00,CLR,,0.00,WeatherDisplay:10.37,2013-05-18 04:46:00,
2013-05-17 23:49:00,68.9,54.4,29.09,ESE,112,3.5,3.5,60,0.00,CLR,,0.00,WeatherDisplay:10.37,2013-05-18 04:49:00,
2013-05-17 23:50:00,68.9,54.4,29.09,ESE,112,2.9,2.9,60,0.00,CLR,,0.00,WeatherDisplay:10.37,2013-05-18 04:50:00,
2013-05-17 23:52:00,68.9,54.4,29.09,SSE,158,3.5,3.5,60,0.00,CLR,,0.00,WeatherDisplay:10.37,2013-05-18 04:52:00,
2013-05-17 23:55:00,68.9,54.4,29.09,ESE,121,2.0,0.0,60,0.00,CLR,,0.00,WeatherDisplay:10.37,2013-05-18 04:55:00,
2013-05-17 23:57:00,68.9,54.4,29.09,SE,135,5.8,5.8,60,0.00,CLR,,0.00,WeatherDisplay:10.37,2013-05-18 04:57:00,
2013-05-17 23:58:00,68.9,54.4,29.09,ESE,112,4.6,4.6,60,0.00,CLR,,0.00,WeatherDisplay:10.37,2013-05-18 04:58:00,